You are on page 1of 47

type time latitude longitude altitude (m) color width opacity name

desc
T 2017-12-11 00:55:29 37.291640000 -121.998940000 78.5 #ec892a
8 0.87 Track <p>Start: Dec 10, 2017 4:55:29 PM End: Dec 10, 2017 6:04:12
PM Duration: 1h08'43" Elements: 1363 Length: 5.58km Avg Speed: 4.88km h Max Speed:
5.40km h Low: 62.9m High: 81.9m Gain: 410m</p>
T 2017-12-11 00:55:32 37.291640000 -121.998924000 75.2

T 2017-12-11 00:55:43 37.291634000 -121.998940000 71.7

T 2017-12-11 00:55:45 37.291610000 -121.998920000 71.2

T 2017-12-11 00:55:48 37.291580000 -121.998890000 70.9

T 2017-12-11 00:55:51 37.291550000 -121.998860000 70.3

T 2017-12-11 00:55:54 37.291523000 -121.998840000 70.4

T 2017-12-11 00:55:57 37.291504000 -121.998820000 70.5

T 2017-12-11 00:56:00 37.291477000 -121.998800000 70.6

T 2017-12-11 00:56:03 37.291450000 -121.998770000 69.8

T 2017-12-11 00:56:06 37.291428000 -121.998750000 68.9

T 2017-12-11 00:56:09 37.291397000 -121.998726000 69.6

T 2017-12-11 00:56:12 37.291370000 -121.998695000 68.5

T 2017-12-11 00:56:15 37.291340000 -121.998665000 68.8

T 2017-12-11 00:56:18 37.291310000 -121.998640000 67.5

T 2017-12-11 00:56:21 37.291283000 -121.998610000 67.9

T 2017-12-11 00:56:24 37.291252000 -121.998590000 67.0

T 2017-12-11 00:56:27 37.291220000 -121.998560000 66.4

T 2017-12-11 00:56:30 37.291195000 -121.998535000 65.4

T 2017-12-11 00:56:33 37.291170000 -121.998505000 64.7

T 2017-12-11 00:56:36 37.291140000 -121.998480000 64.3

T 2017-12-11 00:56:39 37.291120000 -121.998450000 63.7

T 2017-12-11 00:56:42 37.291096000 -121.998430000 63.6

T 2017-12-11 00:56:45 37.291070000 -121.998405000 64.9

T 2017-12-11 00:56:48 37.291042000 -121.998380000 66.1

T 2017-12-11 00:56:51 37.291016000 -121.998350000 66.7

T 2017-12-11 00:56:54 37.290985000 -121.998320000 68.4

T 2017-12-11 00:56:57 37.290962000 -121.998300000 67.8


T 2017-12-11 00:57:00 37.290936000 -121.998276000 67.1

T 2017-12-11 00:57:03 37.290910000 -121.998245000 67.7

T 2017-12-11 00:57:06 37.290897000 -121.998210000 68.2

T 2017-12-11 00:57:09 37.290882000 -121.998180000 70.0

T 2017-12-11 00:57:15 37.290867000 -121.998146000 70.2

T 2017-12-11 00:57:18 37.290855000 -121.998100000 70.9

T 2017-12-11 00:57:21 37.290848000 -121.998060000 70.6

T 2017-12-11 00:57:24 37.290836000 -121.998010000 71.0

T 2017-12-11 00:57:27 37.290830000 -121.997960000 71.5

T 2017-12-11 00:57:29 37.290830000 -121.997925000 71.0

T 2017-12-11 00:57:32 37.290825000 -121.997870000 73.1

T 2017-12-11 00:57:35 37.290820000 -121.997820000 74.1

T 2017-12-11 00:57:38 37.290830000 -121.997770000 73.9

T 2017-12-11 00:57:41 37.290844000 -121.997730000 74.0

T 2017-12-11 00:57:45 37.290863000 -121.997680000 75.2

T 2017-12-11 00:57:49 37.290894000 -121.997635000 75.7

T 2017-12-11 00:57:52 37.290916000 -121.997604000 77.0

T 2017-12-11 00:57:55 37.290940000 -121.997570000 78.7

T 2017-12-11 00:57:58 37.290962000 -121.997536000 75.4

T 2017-12-11 00:58:01 37.290990000 -121.997505000 74.6

T 2017-12-11 00:58:04 37.291020000 -121.997480000 73.7

T 2017-12-11 00:58:07 37.291054000 -121.997460000 73.6

T 2017-12-11 00:58:10 37.291090000 -121.997444000 74.1

T 2017-12-11 00:58:13 37.291122000 -121.997430000 74.0

T 2017-12-11 00:58:16 37.291153000 -121.997410000 74.1

T 2017-12-11 00:58:19 37.291187000 -121.997400000 74.1

T 2017-12-11 00:58:22 37.291220000 -121.997400000 73.2

T 2017-12-11 00:58:25 37.291256000 -121.997410000 72.3

T 2017-12-11 00:58:28 37.291294000 -121.997430000 71.9


T 2017-12-11 00:58:31 37.291325000 -121.997450000 71.5

T 2017-12-11 00:58:34 37.291355000 -121.997470000 71.0

T 2017-12-11 00:58:37 37.291386000 -121.997490000 71.1

T 2017-12-11 00:58:40 37.291416000 -121.997505000 70.0

T 2017-12-11 00:58:43 37.291443000 -121.997530000 70.8

T 2017-12-11 00:58:46 37.291473000 -121.997560000 71.9

T 2017-12-11 00:58:49 37.291500000 -121.997590000 71.6

T 2017-12-11 00:58:52 37.291527000 -121.997620000 72.3

T 2017-12-11 00:58:55 37.291553000 -121.997650000 71.4

T 2017-12-11 00:58:58 37.291580000 -121.997680000 70.9

T 2017-12-11 00:59:01 37.291607000 -121.997700000 70.7

T 2017-12-11 00:59:04 37.291634000 -121.997734000 71.2

T 2017-12-11 00:59:07 37.291656000 -121.997760000 70.7

T 2017-12-11 00:59:10 37.291687000 -121.997780000 71.1

T 2017-12-11 00:59:13 37.291714000 -121.997800000 71.1

T 2017-12-11 00:59:16 37.291740000 -121.997830000 71.3

T 2017-12-11 00:59:19 37.291767000 -121.997856000 71.9

T 2017-12-11 00:59:22 37.291794000 -121.997890000 71.5

T 2017-12-11 00:59:25 37.291820000 -121.997910000 71.2

T 2017-12-11 00:59:28 37.291847000 -121.997940000 71.1

T 2017-12-11 00:59:31 37.291878000 -121.997960000 71.1

T 2017-12-11 00:59:34 37.291904000 -121.997990000 71.2

T 2017-12-11 00:59:37 37.291927000 -121.998020000 71.6

T 2017-12-11 00:59:40 37.291954000 -121.998040000 71.8

T 2017-12-11 00:59:43 37.291973000 -121.998060000 70.9

T 2017-12-11 00:59:46 37.291996000 -121.998085000 70.6

T 2017-12-11 00:59:49 37.292023000 -121.998110000 70.4

T 2017-12-11 00:59:52 37.292050000 -121.998140000 70.4

T 2017-12-11 00:59:55 37.292076000 -121.998160000 70.8

T 2017-12-11 00:59:59 37.292110000 -121.998200000 71.4


T 2017-12-11 01:00:02 37.292137000 -121.998220000 71.5

T 2017-12-11 01:00:05 37.292164000 -121.998250000 72.6

T 2017-12-11 01:00:08 37.292187000 -121.998280000 73.9

T 2017-12-11 01:00:11 37.292210000 -121.998314000 75.7

T 2017-12-11 01:00:14 37.292230000 -121.998350000 76.5

T 2017-12-11 01:00:17 37.292250000 -121.998390000 75.9

T 2017-12-11 01:00:20 37.292263000 -121.998436000 75.7

T 2017-12-11 01:00:22 37.292267000 -121.998470000 75.3

T 2017-12-11 01:00:24 37.292267000 -121.998505000 74.1

T 2017-12-11 01:00:26 37.292263000 -121.998535000 75.2

T 2017-12-11 01:00:28 37.292263000 -121.998570000 75.8

T 2017-12-11 01:00:30 37.292255000 -121.998604000 76.7

T 2017-12-11 01:00:32 37.292248000 -121.998640000 76.3

T 2017-12-11 01:00:35 37.292240000 -121.998690000 76.2

T 2017-12-11 01:00:37 37.292233000 -121.998726000 76.3

T 2017-12-11 01:00:39 37.292225000 -121.998760000 75.5

T 2017-12-11 01:00:42 37.292210000 -121.998800000 74.8

T 2017-12-11 01:00:45 37.292190000 -121.998840000 75.5

T 2017-12-11 01:00:48 37.292168000 -121.998880000 75.7

T 2017-12-11 01:00:51 37.292140000 -121.998920000 75.7

T 2017-12-11 01:00:54 37.292110000 -121.998950000 76.7

T 2017-12-11 01:00:57 37.292080000 -121.998980000 76.3

T 2017-12-11 01:01:00 37.292050000 -121.999000000 76.7

T 2017-12-11 01:01:03 37.292015000 -121.999020000 77.1

T 2017-12-11 01:01:07 37.291973000 -121.999050000 76.5

T 2017-12-11 01:01:10 37.291940000 -121.999054000 75.1

T 2017-12-11 01:01:13 37.291904000 -121.999060000 74.5

T 2017-12-11 01:01:16 37.291866000 -121.999070000 73.9

T 2017-12-11 01:01:19 37.291832000 -121.999060000 73.6


T 2017-12-11 01:01:22 37.291798000 -121.999054000 73.5

T 2017-12-11 01:01:25 37.291767000 -121.999050000 73.2

T 2017-12-11 01:01:28 37.291733000 -121.999030000 73.5

T 2017-12-11 01:01:31 37.291702000 -121.999016000 73.2

T 2017-12-11 01:01:34 37.291668000 -121.998990000 72.2

T 2017-12-11 01:01:37 37.291640000 -121.998970000 72.5

T 2017-12-11 01:01:40 37.291615000 -121.998950000 72.5

T 2017-12-11 01:01:50 37.291584000 -121.998930000 72.6

T 2017-12-11 01:01:53 37.291553000 -121.998900000 72.4

T 2017-12-11 01:01:56 37.291523000 -121.998870000 72.0

T 2017-12-11 01:01:59 37.291496000 -121.998850000 71.5

T 2017-12-11 01:02:02 37.291466000 -121.998820000 71.2

T 2017-12-11 01:02:05 37.291440000 -121.998795000 70.0

T 2017-12-11 01:02:09 37.291400000 -121.998760000 71.7

T 2017-12-11 01:02:12 37.291374000 -121.998726000 71.1

T 2017-12-11 01:02:15 37.291344000 -121.998695000 70.5

T 2017-12-11 01:02:18 37.291317000 -121.998665000 71.1

T 2017-12-11 01:02:21 37.291290000 -121.998634000 70.7

T 2017-12-11 01:02:24 37.291256000 -121.998604000 69.9

T 2017-12-11 01:02:27 37.291230000 -121.998580000 69.6

T 2017-12-11 01:02:30 37.291200000 -121.998550000 70.1

T 2017-12-11 01:02:33 37.291170000 -121.998520000 70.0

T 2017-12-11 01:02:36 37.291140000 -121.998490000 69.3

T 2017-12-11 01:02:39 37.291110000 -121.998460000 69.9

T 2017-12-11 01:02:42 37.291084000 -121.998430000 68.2

T 2017-12-11 01:02:45 37.291054000 -121.998400000 69.5

T 2017-12-11 01:02:48 37.291027000 -121.998375000 68.3

T 2017-12-11 01:02:51 37.291000000 -121.998344000 68.2

T 2017-12-11 01:02:54 37.290970000 -121.998320000 68.2

T 2017-12-11 01:02:57 37.290943000 -121.998290000 66.8


T 2017-12-11 01:03:00 37.290913000 -121.998260000 67.8

T 2017-12-11 01:03:04 37.290880000 -121.998220000 68.3

T 2017-12-11 01:03:10 37.290860000 -121.998170000 71.5

T 2017-12-11 01:03:13 37.290840000 -121.998140000 70.1

T 2017-12-11 01:03:16 37.290820000 -121.998090000 71.3

T 2017-12-11 01:03:19 37.290810000 -121.998055000 70.3

T 2017-12-11 01:03:21 37.290802000 -121.998024000 70.2

T 2017-12-11 01:03:23 37.290800000 -121.997986000 70.5

T 2017-12-11 01:03:26 37.290794000 -121.997930000 72.2

T 2017-12-11 01:03:28 37.290790000 -121.997894000 72.1

T 2017-12-11 01:03:30 37.290790000 -121.997860000 72.7

T 2017-12-11 01:03:33 37.290794000 -121.997810000 72.7

T 2017-12-11 01:03:37 37.290810000 -121.997760000 73.3

T 2017-12-11 01:03:41 37.290833000 -121.997710000 73.6

T 2017-12-11 01:03:44 37.290850000 -121.997665000 74.7

T 2017-12-11 01:03:47 37.290874000 -121.997630000 75.0

T 2017-12-11 01:03:51 37.290897000 -121.997580000 72.6

T 2017-12-11 01:03:54 37.290916000 -121.997540000 72.2

T 2017-12-11 01:03:57 37.290940000 -121.997510000 71.4

T 2017-12-11 01:04:00 37.290966000 -121.997475000 71.6

T 2017-12-11 01:04:02 37.290990000 -121.997450000 71.5

T 2017-12-11 01:04:05 37.291027000 -121.997430000 71.9

T 2017-12-11 01:04:07 37.291050000 -121.997420000 71.9

T 2017-12-11 01:04:10 37.291090000 -121.997400000 71.9

T 2017-12-11 01:04:14 37.291130000 -121.997390000 72.3

T 2017-12-11 01:04:17 37.291164000 -121.997390000 71.2

T 2017-12-11 01:04:20 37.291203000 -121.997400000 71.6

T 2017-12-11 01:04:22 37.291230000 -121.997400000 71.7

T 2017-12-11 01:04:25 37.291264000 -121.997420000 71.0


T 2017-12-11 01:04:28 37.291294000 -121.997440000 70.7

T 2017-12-11 01:04:31 37.291325000 -121.997460000 69.4

T 2017-12-11 01:04:34 37.291360000 -121.997480000 68.1

T 2017-12-11 01:04:37 37.291386000 -121.997505000 68.5

T 2017-12-11 01:04:40 37.291416000 -121.997530000 68.3

T 2017-12-11 01:04:43 37.291447000 -121.997550000 67.9

T 2017-12-11 01:04:46 37.291477000 -121.997574000 68.0

T 2017-12-11 01:04:49 37.291508000 -121.997604000 67.5

T 2017-12-11 01:04:52 37.291534000 -121.997635000 67.6

T 2017-12-11 01:04:55 37.291565000 -121.997660000 67.2

T 2017-12-11 01:04:59 37.291603000 -121.997690000 67.6

T 2017-12-11 01:05:02 37.291634000 -121.997710000 68.1

T 2017-12-11 01:05:05 37.291660000 -121.997734000 68.4

T 2017-12-11 01:05:08 37.291687000 -121.997765000 67.8

T 2017-12-11 01:05:11 37.291710000 -121.997790000 67.6

T 2017-12-11 01:05:14 37.291737000 -121.997810000 67.7

T 2017-12-11 01:05:17 37.291767000 -121.997840000 68.5

T 2017-12-11 01:05:20 37.291798000 -121.997870000 68.2

T 2017-12-11 01:05:23 37.291824000 -121.997894000 68.4

T 2017-12-11 01:05:26 37.291847000 -121.997925000 67.7

T 2017-12-11 01:05:29 37.291874000 -121.997955000 68.0

T 2017-12-11 01:05:32 37.291900000 -121.997980000 68.5

T 2017-12-11 01:05:35 37.291927000 -121.998010000 68.3

T 2017-12-11 01:05:38 37.291954000 -121.998040000 68.3

T 2017-12-11 01:05:41 37.291977000 -121.998070000 68.5

T 2017-12-11 01:05:44 37.292000000 -121.998100000 69.4

T 2017-12-11 01:05:47 37.292027000 -121.998120000 69.8

T 2017-12-11 01:05:50 37.292053000 -121.998150000 70.1

T 2017-12-11 01:05:53 37.292076000 -121.998180000 70.4

T 2017-12-11 01:05:56 37.292103000 -121.998210000 70.3


T 2017-12-11 01:05:59 37.292130000 -121.998240000 70.7

T 2017-12-11 01:06:02 37.292150000 -121.998276000 71.4

T 2017-12-11 01:06:05 37.292175000 -121.998310000 72.7

T 2017-12-11 01:06:08 37.292200000 -121.998340000 75.1

T 2017-12-11 01:06:11 37.292213000 -121.998375000 75.8

T 2017-12-11 01:06:14 37.292233000 -121.998420000 76.5

T 2017-12-11 01:06:17 37.292248000 -121.998470000 76.3

T 2017-12-11 01:06:20 37.292260000 -121.998510000 76.9

T 2017-12-11 01:06:23 37.292255000 -121.998566000 77.1

T 2017-12-11 01:06:26 37.292255000 -121.998610000 76.7

T 2017-12-11 01:06:29 37.292250000 -121.998660000 77.2

T 2017-12-11 01:06:32 37.292248000 -121.998710000 77.0

T 2017-12-11 01:06:35 37.292236000 -121.998760000 76.7

T 2017-12-11 01:06:38 37.292217000 -121.998795000 77.5

T 2017-12-11 01:06:41 37.292202000 -121.998840000 77.3

T 2017-12-11 01:06:44 37.292180000 -121.998870000 77.1

T 2017-12-11 01:06:47 37.292152000 -121.998910000 76.8

T 2017-12-11 01:06:49 37.292133000 -121.998930000 76.7

T 2017-12-11 01:06:51 37.292110000 -121.998955000 76.8

T 2017-12-11 01:06:53 37.292088000 -121.998980000 77.4

T 2017-12-11 01:06:56 37.292053000 -121.999010000 78.4

T 2017-12-11 01:06:58 37.292030000 -121.999020000 78.0

T 2017-12-11 01:07:00 37.292004000 -121.999040000 78.3

T 2017-12-11 01:07:02 37.291977000 -121.999050000 78.0

T 2017-12-11 01:07:05 37.291940000 -121.999060000 77.4

T 2017-12-11 01:07:08 37.291904000 -121.999070000 77.6

T 2017-12-11 01:07:11 37.291866000 -121.999070000 77.4

T 2017-12-11 01:07:14 37.291830000 -121.999070000 77.5

T 2017-12-11 01:07:17 37.291794000 -121.999054000 76.3


T 2017-12-11 01:07:20 37.291756000 -121.999040000 75.5

T 2017-12-11 01:07:23 37.291720000 -121.999020000 74.8

T 2017-12-11 01:07:26 37.291687000 -121.999010000 73.6

T 2017-12-11 01:07:29 37.291656000 -121.998985000 72.7

T 2017-12-11 01:07:32 37.291630000 -121.998955000 72.2

T 2017-12-11 01:07:42 37.291607000 -121.998940000 71.2

T 2017-12-11 01:07:46 37.291570000 -121.998900000 71.4

T 2017-12-11 01:07:49 37.291540000 -121.998870000 71.0

T 2017-12-11 01:07:52 37.291510000 -121.998830000 71.9

T 2017-12-11 01:07:55 37.291480000 -121.998800000 72.1

T 2017-12-11 01:07:58 37.291447000 -121.998770000 71.5

T 2017-12-11 01:08:01 37.291416000 -121.998740000 71.7

T 2017-12-11 01:08:04 37.291386000 -121.998710000 71.8

T 2017-12-11 01:08:06 37.291363000 -121.998690000 70.5

T 2017-12-11 01:08:09 37.291332000 -121.998665000 70.4

T 2017-12-11 01:08:12 37.291298000 -121.998640000 70.4

T 2017-12-11 01:08:15 37.291267000 -121.998620000 69.5

T 2017-12-11 01:08:18 37.291233000 -121.998600000 69.1

T 2017-12-11 01:08:21 37.291203000 -121.998560000 70.1

T 2017-12-11 01:08:24 37.291172000 -121.998530000 69.6

T 2017-12-11 01:08:27 37.291140000 -121.998505000 70.2

T 2017-12-11 01:08:30 37.291115000 -121.998474000 69.3

T 2017-12-11 01:08:33 37.291090000 -121.998440000 68.6

T 2017-12-11 01:08:36 37.291065000 -121.998420000 68.9

T 2017-12-11 01:08:39 37.291040000 -121.998390000 68.6

T 2017-12-11 01:08:42 37.291010000 -121.998375000 69.2

T 2017-12-11 01:08:45 37.290985000 -121.998344000 67.9

T 2017-12-11 01:08:48 37.290955000 -121.998320000 67.5

T 2017-12-11 01:08:52 37.290924000 -121.998276000 70.8

T 2017-12-11 01:08:55 37.290905000 -121.998245000 72.0


T 2017-12-11 01:08:58 37.290886000 -121.998210000 71.4

T 2017-12-11 01:09:02 37.290860000 -121.998180000 74.8

T 2017-12-11 01:09:06 37.290840000 -121.998130000 75.0

T 2017-12-11 01:09:10 37.290833000 -121.998085000 77.9

T 2017-12-11 01:09:18 37.290830000 -121.998030000 76.9

T 2017-12-11 01:09:21 37.290830000 -121.997986000 79.6

T 2017-12-11 01:09:24 37.290830000 -121.997925000 79.7

T 2017-12-11 01:09:27 37.290830000 -121.997860000 80.0

T 2017-12-11 01:09:30 37.290836000 -121.997800000 80.0

T 2017-12-11 01:09:32 37.290836000 -121.997765000 80.5

T 2017-12-11 01:09:34 37.290844000 -121.997734000 81.6

T 2017-12-11 01:09:36 37.290855000 -121.997696000 80.3

T 2017-12-11 01:09:38 37.290867000 -121.997665000 79.4

T 2017-12-11 01:09:40 37.290874000 -121.997630000 77.8

T 2017-12-11 01:09:42 37.290886000 -121.997600000 77.3

T 2017-12-11 01:09:44 37.290897000 -121.997570000 76.8

T 2017-12-11 01:09:47 37.290920000 -121.997530000 75.9

T 2017-12-11 01:09:50 37.290943000 -121.997500000 74.8

T 2017-12-11 01:09:53 37.290974000 -121.997475000 74.0

T 2017-12-11 01:09:56 37.291008000 -121.997450000 73.9

T 2017-12-11 01:09:59 37.291042000 -121.997430000 73.8

T 2017-12-11 01:10:02 37.291077000 -121.997410000 73.0

T 2017-12-11 01:10:05 37.291110000 -121.997406000 73.1

T 2017-12-11 01:10:08 37.291150000 -121.997420000 72.0

T 2017-12-11 01:10:11 37.291187000 -121.997420000 72.9

T 2017-12-11 01:10:14 37.291220000 -121.997420000 72.9

T 2017-12-11 01:10:17 37.291260000 -121.997440000 73.1

T 2017-12-11 01:10:20 37.291298000 -121.997450000 73.0

T 2017-12-11 01:10:22 37.291325000 -121.997460000 71.7


T 2017-12-11 01:10:24 37.291350000 -121.997475000 71.4

T 2017-12-11 01:10:26 37.291374000 -121.997490000 72.0

T 2017-12-11 01:10:29 37.291405000 -121.997520000 72.0

T 2017-12-11 01:10:32 37.291435000 -121.997540000 70.8

T 2017-12-11 01:10:35 37.291462000 -121.997570000 70.5

T 2017-12-11 01:10:38 37.291490000 -121.997590000 70.4

T 2017-12-11 01:10:41 37.291515000 -121.997610000 69.3

T 2017-12-11 01:10:44 37.291542000 -121.997635000 69.8

T 2017-12-11 01:10:47 37.291570000 -121.997660000 69.3

T 2017-12-11 01:10:50 37.291600000 -121.997680000 69.2

T 2017-12-11 01:10:53 37.291626000 -121.997710000 69.0

T 2017-12-11 01:10:56 37.291656000 -121.997734000 68.5

T 2017-12-11 01:10:59 37.291683000 -121.997760000 69.0

T 2017-12-11 01:11:02 37.291710000 -121.997790000 69.4

T 2017-12-11 01:11:05 37.291737000 -121.997820000 69.5

T 2017-12-11 01:11:08 37.291760000 -121.997840000 69.0

T 2017-12-11 01:11:11 37.291786000 -121.997870000 68.5

T 2017-12-11 01:11:14 37.291813000 -121.997900000 68.6

T 2017-12-11 01:11:17 37.291843000 -121.997925000 68.2

T 2017-12-11 01:11:20 37.291870000 -121.997955000 69.0

T 2017-12-11 01:11:23 37.291897000 -121.997980000 68.8

T 2017-12-11 01:11:26 37.291927000 -121.998000000 68.6

T 2017-12-11 01:11:29 37.291954000 -121.998030000 68.7

T 2017-12-11 01:11:32 37.291985000 -121.998060000 68.3

T 2017-12-11 01:11:35 37.292010000 -121.998090000 68.3

T 2017-12-11 01:11:38 37.292038000 -121.998116000 68.7

T 2017-12-11 01:11:41 37.292065000 -121.998146000 69.2

T 2017-12-11 01:11:44 37.292090000 -121.998180000 69.8

T 2017-12-11 01:11:47 37.292118000 -121.998210000 70.0

T 2017-12-11 01:11:51 37.292152000 -121.998245000 71.2


T 2017-12-11 01:11:54 37.292183000 -121.998280000 72.6

T 2017-12-11 01:11:57 37.292206000 -121.998314000 73.1

T 2017-12-11 01:12:01 37.292220000 -121.998370000 71.5

T 2017-12-11 01:12:04 37.292230000 -121.998410000 73.1

T 2017-12-11 01:12:08 37.292230000 -121.998474000 72.9

T 2017-12-11 01:12:12 37.292225000 -121.998530000 72.7

T 2017-12-11 01:12:15 37.292233000 -121.998570000 73.1

T 2017-12-11 01:12:18 37.292236000 -121.998630000 72.9

T 2017-12-11 01:12:21 37.292233000 -121.998670000 72.7

T 2017-12-11 01:12:24 37.292220000 -121.998720000 73.0

T 2017-12-11 01:12:27 37.292213000 -121.998764000 72.4

T 2017-12-11 01:12:30 37.292200000 -121.998810000 72.9

T 2017-12-11 01:12:33 37.292180000 -121.998856000 73.0

T 2017-12-11 01:12:36 37.292156000 -121.998886000 73.3

T 2017-12-11 01:12:39 37.292133000 -121.998920000 73.1

T 2017-12-11 01:12:42 37.292103000 -121.998950000 73.5

T 2017-12-11 01:12:45 37.292072000 -121.998980000 73.5

T 2017-12-11 01:12:47 37.292050000 -121.998990000 73.5

T 2017-12-11 01:12:49 37.292023000 -121.999010000 73.7

T 2017-12-11 01:12:51 37.291996000 -121.999020000 73.8

T 2017-12-11 01:12:54 37.291960000 -121.999040000 73.5

T 2017-12-11 01:12:57 37.291927000 -121.999054000 72.7

T 2017-12-11 01:13:00 37.291893000 -121.999054000 72.8

T 2017-12-11 01:13:03 37.291855000 -121.999054000 71.9

T 2017-12-11 01:13:06 37.291820000 -121.999050000 71.8

T 2017-12-11 01:13:09 37.291786000 -121.999040000 70.1

T 2017-12-11 01:13:12 37.291750000 -121.999020000 71.0

T 2017-12-11 01:13:15 37.291714000 -121.999010000 71.3

T 2017-12-11 01:13:18 37.291680000 -121.998985000 71.0


T 2017-12-11 01:13:21 37.291645000 -121.998960000 70.8

T 2017-12-11 01:13:24 37.291622000 -121.998940000 70.6

T 2017-12-11 01:13:32 37.291588000 -121.998924000 69.5

T 2017-12-11 01:13:34 37.291570000 -121.998900000 69.0

T 2017-12-11 01:13:37 37.291540000 -121.998860000 69.0

T 2017-12-11 01:13:40 37.291508000 -121.998830000 68.6

T 2017-12-11 01:13:43 37.291480000 -121.998800000 68.6

T 2017-12-11 01:13:46 37.291450000 -121.998770000 68.1

T 2017-12-11 01:13:49 37.291420000 -121.998740000 68.0

T 2017-12-11 01:13:52 37.291390000 -121.998710000 67.6

T 2017-12-11 01:13:55 37.291360000 -121.998690000 68.0

T 2017-12-11 01:13:58 37.291332000 -121.998660000 69.2

T 2017-12-11 01:14:01 37.291300000 -121.998630000 69.7

T 2017-12-11 01:14:04 37.291275000 -121.998600000 70.2

T 2017-12-11 01:14:07 37.291240000 -121.998566000 70.6

T 2017-12-11 01:14:10 37.291214000 -121.998540000 70.3

T 2017-12-11 01:14:14 37.291172000 -121.998510000 70.4

T 2017-12-11 01:14:17 37.291145000 -121.998490000 70.1

T 2017-12-11 01:14:20 37.291115000 -121.998460000 70.2

T 2017-12-11 01:14:23 37.291090000 -121.998430000 70.8

T 2017-12-11 01:14:26 37.291058000 -121.998400000 70.7

T 2017-12-11 01:14:29 37.291030000 -121.998375000 71.1

T 2017-12-11 01:14:32 37.291008000 -121.998344000 70.8

T 2017-12-11 01:14:35 37.290980000 -121.998314000 71.0

T 2017-12-11 01:14:38 37.290955000 -121.998280000 71.9

T 2017-12-11 01:14:41 37.290930000 -121.998250000 73.4

T 2017-12-11 01:14:44 37.290913000 -121.998230000 73.0

T 2017-12-11 01:14:48 37.290886000 -121.998200000 74.7

T 2017-12-11 01:14:51 37.290867000 -121.998170000 74.9

T 2017-12-11 01:14:55 37.290836000 -121.998130000 73.0


T 2017-12-11 01:14:59 37.290820000 -121.998085000 73.1

T 2017-12-11 01:15:03 37.290806000 -121.998030000 74.9

T 2017-12-11 01:15:07 37.290794000 -121.997970000 76.1

T 2017-12-11 01:15:10 37.290790000 -121.997910000 78.4

T 2017-12-11 01:15:13 37.290787000 -121.997856000 79.4

T 2017-12-11 01:15:16 37.290783000 -121.997800000 80.0

T 2017-12-11 01:15:19 37.290800000 -121.997765000 80.1

T 2017-12-11 01:15:22 37.290806000 -121.997720000 79.8

T 2017-12-11 01:15:25 37.290820000 -121.997680000 78.1

T 2017-12-11 01:15:28 37.290840000 -121.997640000 77.7

T 2017-12-11 01:15:31 37.290863000 -121.997600000 76.8

T 2017-12-11 01:15:34 37.290886000 -121.997560000 76.4

T 2017-12-11 01:15:37 37.290910000 -121.997530000 76.2

T 2017-12-11 01:15:40 37.290930000 -121.997490000 75.6

T 2017-12-11 01:15:43 37.290962000 -121.997470000 75.3

T 2017-12-11 01:15:46 37.290997000 -121.997444000 74.5

T 2017-12-11 01:15:49 37.291030000 -121.997430000 74.6

T 2017-12-11 01:15:52 37.291065000 -121.997410000 74.4

T 2017-12-11 01:15:54 37.291092000 -121.997406000 73.8

T 2017-12-11 01:15:56 37.291122000 -121.997410000 73.6

T 2017-12-11 01:15:58 37.291150000 -121.997410000 73.8

T 2017-12-11 01:16:01 37.291190000 -121.997420000 73.5

T 2017-12-11 01:16:04 37.291230000 -121.997440000 72.8

T 2017-12-11 01:16:07 37.291264000 -121.997450000 73.0

T 2017-12-11 01:16:14 37.291298000 -121.997475000 71.1

T 2017-12-11 01:16:17 37.291340000 -121.997500000 71.2

T 2017-12-11 01:16:20 37.291374000 -121.997520000 72.0

T 2017-12-11 01:16:23 37.291400000 -121.997540000 72.1

T 2017-12-11 01:16:26 37.291430000 -121.997570000 72.2


T 2017-12-11 01:16:30 37.291462000 -121.997604000 71.3

T 2017-12-11 01:16:34 37.291504000 -121.997635000 70.2

T 2017-12-11 01:16:38 37.291542000 -121.997665000 68.9

T 2017-12-11 01:16:41 37.291573000 -121.997690000 68.5

T 2017-12-11 01:16:44 37.291600000 -121.997710000 68.8

T 2017-12-11 01:16:47 37.291626000 -121.997734000 68.9

T 2017-12-11 01:16:50 37.291656000 -121.997760000 68.8

T 2017-12-11 01:16:53 37.291687000 -121.997790000 69.3

T 2017-12-11 01:16:55 37.291710000 -121.997810000 69.2

T 2017-12-11 01:16:57 37.291733000 -121.997826000 69.0

T 2017-12-11 01:16:59 37.291756000 -121.997850000 68.9

T 2017-12-11 01:17:02 37.291786000 -121.997880000 69.5

T 2017-12-11 01:17:05 37.291813000 -121.997910000 69.5

T 2017-12-11 01:17:08 37.291843000 -121.997940000 69.2

T 2017-12-11 01:17:12 37.291878000 -121.997980000 69.0

T 2017-12-11 01:17:15 37.291910000 -121.998000000 69.2

T 2017-12-11 01:17:18 37.291935000 -121.998030000 69.1

T 2017-12-11 01:17:21 37.291970000 -121.998060000 69.8

T 2017-12-11 01:17:24 37.292000000 -121.998090000 70.6

T 2017-12-11 01:17:27 37.292030000 -121.998120000 71.3

T 2017-12-11 01:17:30 37.292060000 -121.998150000 70.8

T 2017-12-11 01:17:33 37.292090000 -121.998184000 71.1

T 2017-12-11 01:17:35 37.292110000 -121.998210000 71.6

T 2017-12-11 01:17:38 37.292145000 -121.998240000 71.5

T 2017-12-11 01:17:41 37.292170000 -121.998270000 72.0

T 2017-12-11 01:17:44 37.292190000 -121.998310000 72.0

T 2017-12-11 01:17:47 37.292206000 -121.998344000 71.7

T 2017-12-11 01:17:52 37.292187000 -121.998390000 69.5

T 2017-12-11 01:17:56 37.292168000 -121.998436000 69.2

T 2017-12-11 01:17:59 37.292168000 -121.998480000 68.8


T 2017-12-11 01:18:02 37.292175000 -121.998535000 69.2

T 2017-12-11 01:18:05 37.292190000 -121.998590000 69.8

T 2017-12-11 01:18:07 37.292202000 -121.998634000 70.0

T 2017-12-11 01:18:09 37.292210000 -121.998670000 69.8

T 2017-12-11 01:18:11 37.292213000 -121.998710000 69.5

T 2017-12-11 01:18:13 37.292213000 -121.998740000 70.2

T 2017-12-11 01:18:16 37.292210000 -121.998790000 70.4

T 2017-12-11 01:18:19 37.292200000 -121.998825000 71.0

T 2017-12-11 01:18:22 37.292180000 -121.998860000 72.9

T 2017-12-11 01:18:25 37.292156000 -121.998900000 72.2

T 2017-12-11 01:18:28 37.292130000 -121.998940000 72.2

T 2017-12-11 01:18:31 37.292100000 -121.998970000 72.4

T 2017-12-11 01:18:34 37.292065000 -121.998990000 72.0

T 2017-12-11 01:18:37 37.292030000 -121.999016000 72.0

T 2017-12-11 01:18:40 37.291992000 -121.999030000 71.1

T 2017-12-11 01:18:43 37.291954000 -121.999050000 70.7

T 2017-12-11 01:18:46 37.291916000 -121.999050000 70.6

T 2017-12-11 01:18:49 37.291880000 -121.999054000 69.9

T 2017-12-11 01:18:52 37.291843000 -121.999054000 68.9

T 2017-12-11 01:18:55 37.291810000 -121.999054000 68.8

T 2017-12-11 01:18:58 37.291775000 -121.999050000 69.2

T 2017-12-11 01:19:01 37.291740000 -121.999030000 68.9

T 2017-12-11 01:19:04 37.291702000 -121.999016000 69.6

T 2017-12-11 01:19:07 37.291670000 -121.998990000 69.3

T 2017-12-11 01:19:10 37.291640000 -121.998960000 70.0

T 2017-12-11 01:19:17 37.291622000 -121.998940000 69.9

T 2017-12-11 01:19:21 37.291590000 -121.998910000 69.1

T 2017-12-11 01:19:23 37.291570000 -121.998886000 69.7

T 2017-12-11 01:19:25 37.291546000 -121.998860000 69.2


T 2017-12-11 01:19:28 37.291515000 -121.998830000 69.1

T 2017-12-11 01:19:31 37.291480000 -121.998810000 70.3

T 2017-12-11 01:19:33 37.291460000 -121.998790000 70.1

T 2017-12-11 01:19:36 37.291428000 -121.998760000 70.4

T 2017-12-11 01:19:38 37.291400000 -121.998740000 70.0

T 2017-12-11 01:19:40 37.291378000 -121.998726000 69.8

T 2017-12-11 01:19:43 37.291348000 -121.998695000 70.0

T 2017-12-11 01:19:46 37.291320000 -121.998665000 69.9

T 2017-12-11 01:19:49 37.291286000 -121.998634000 70.2

T 2017-12-11 01:19:52 37.291256000 -121.998610000 69.4

T 2017-12-11 01:19:55 37.291225000 -121.998580000 69.7

T 2017-12-11 01:19:58 37.291200000 -121.998560000 69.8

T 2017-12-11 01:20:01 37.291170000 -121.998535000 70.3

T 2017-12-11 01:20:04 37.291138000 -121.998505000 71.7

T 2017-12-11 01:20:07 37.291110000 -121.998474000 71.7

T 2017-12-11 01:20:10 37.291084000 -121.998440000 72.1

T 2017-12-11 01:20:13 37.291060000 -121.998410000 71.8

T 2017-12-11 01:20:16 37.291035000 -121.998380000 70.5

T 2017-12-11 01:20:19 37.291008000 -121.998350000 70.7

T 2017-12-11 01:20:23 37.290974000 -121.998314000 69.8

T 2017-12-11 01:20:26 37.290947000 -121.998280000 68.9

T 2017-12-11 01:20:29 37.290920000 -121.998250000 68.9

T 2017-12-11 01:20:34 37.290890000 -121.998190000 70.5

T 2017-12-11 01:20:38 37.290860000 -121.998146000 70.6

T 2017-12-11 01:20:42 37.290840000 -121.998100000 71.6

T 2017-12-11 01:20:47 37.290830000 -121.998040000 72.1

T 2017-12-11 01:20:51 37.290817000 -121.997970000 72.4

T 2017-12-11 01:20:54 37.290813000 -121.997920000 73.1

T 2017-12-11 01:20:59 37.290810000 -121.997840000 74.8

T 2017-12-11 01:21:03 37.290802000 -121.997790000 75.3


T 2017-12-11 01:21:07 37.290813000 -121.997734000 75.4

T 2017-12-11 01:21:11 37.290830000 -121.997680000 76.0

T 2017-12-11 01:21:14 37.290844000 -121.997640000 76.0

T 2017-12-11 01:21:17 37.290867000 -121.997600000 76.0

T 2017-12-11 01:21:20 37.290886000 -121.997560000 76.3

T 2017-12-11 01:21:23 37.290913000 -121.997520000 75.4

T 2017-12-11 01:21:26 37.290940000 -121.997480000 74.8

T 2017-12-11 01:21:29 37.290966000 -121.997450000 74.6

T 2017-12-11 01:21:32 37.290997000 -121.997420000 74.7

T 2017-12-11 01:21:36 37.291040000 -121.997400000 73.4

T 2017-12-11 01:21:39 37.291073000 -121.997380000 74.0

T 2017-12-11 01:21:42 37.291110000 -121.997390000 74.4

T 2017-12-11 01:21:45 37.291153000 -121.997390000 74.8

T 2017-12-11 01:21:47 37.291180000 -121.997390000 75.4

T 2017-12-11 01:21:50 37.291220000 -121.997390000 75.4

T 2017-12-11 01:21:53 37.291256000 -121.997406000 75.3

T 2017-12-11 01:21:56 37.291290000 -121.997420000 74.7

T 2017-12-11 01:21:59 37.291325000 -121.997444000 74.2

T 2017-12-11 01:22:02 37.291350000 -121.997475000 75.0

T 2017-12-11 01:22:06 37.291390000 -121.997505000 74.3

T 2017-12-11 01:22:09 37.291420000 -121.997536000 73.7

T 2017-12-11 01:22:12 37.291450000 -121.997560000 73.2

T 2017-12-11 01:22:15 37.291480000 -121.997590000 73.6

T 2017-12-11 01:22:18 37.291515000 -121.997620000 72.5

T 2017-12-11 01:22:21 37.291542000 -121.997640000 72.9

T 2017-12-11 01:22:24 37.291573000 -121.997670000 73.0

T 2017-12-11 01:22:27 37.291603000 -121.997700000 72.4

T 2017-12-11 01:22:30 37.291634000 -121.997734000 72.0

T 2017-12-11 01:22:33 37.291660000 -121.997765000 71.5


T 2017-12-11 01:22:36 37.291687000 -121.997790000 71.6

T 2017-12-11 01:22:39 37.291714000 -121.997820000 70.9

T 2017-12-11 01:22:42 37.291740000 -121.997840000 71.2

T 2017-12-11 01:22:45 37.291770000 -121.997870000 71.3

T 2017-12-11 01:22:48 37.291800000 -121.997900000 71.0

T 2017-12-11 01:22:51 37.291830000 -121.997930000 70.5

T 2017-12-11 01:22:54 37.291855000 -121.997960000 70.1

T 2017-12-11 01:22:57 37.291885000 -121.997986000 70.5

T 2017-12-11 01:22:59 37.291904000 -121.998010000 70.5

T 2017-12-11 01:23:02 37.291935000 -121.998040000 70.0

T 2017-12-11 01:23:05 37.291965000 -121.998060000 70.6

T 2017-12-11 01:23:08 37.292000000 -121.998090000 70.2

T 2017-12-11 01:23:10 37.292023000 -121.998116000 70.7

T 2017-12-11 01:23:12 37.292046000 -121.998140000 70.5

T 2017-12-11 01:23:14 37.292070000 -121.998150000 70.7

T 2017-12-11 01:23:16 37.292090000 -121.998180000 71.1

T 2017-12-11 01:23:19 37.292118000 -121.998210000 71.0

T 2017-12-11 01:23:22 37.292150000 -121.998240000 70.6

T 2017-12-11 01:23:25 37.292168000 -121.998270000 71.4

T 2017-12-11 01:23:29 37.292202000 -121.998300000 72.3

T 2017-12-11 01:23:33 37.292210000 -121.998350000 72.8

T 2017-12-11 01:23:37 37.292217000 -121.998405000 72.4

T 2017-12-11 01:23:41 37.292220000 -121.998460000 72.1

T 2017-12-11 01:23:44 37.292206000 -121.998505000 72.9

T 2017-12-11 01:23:47 37.292210000 -121.998560000 73.2

T 2017-12-11 01:23:49 37.292213000 -121.998590000 73.8

T 2017-12-11 01:23:51 37.292217000 -121.998630000 73.2

T 2017-12-11 01:23:53 37.292217000 -121.998665000 73.1

T 2017-12-11 01:23:55 37.292217000 -121.998695000 73.2

T 2017-12-11 01:23:57 37.292213000 -121.998730000 74.7


T 2017-12-11 01:23:59 37.292206000 -121.998764000 74.7

T 2017-12-11 01:24:01 37.292200000 -121.998800000 74.6

T 2017-12-11 01:24:03 37.292187000 -121.998830000 74.6

T 2017-12-11 01:24:06 37.292168000 -121.998870000 75.0

T 2017-12-11 01:24:09 37.292140000 -121.998910000 75.3

T 2017-12-11 01:24:11 37.292118000 -121.998930000 74.8

T 2017-12-11 01:24:13 37.292100000 -121.998955000 74.6

T 2017-12-11 01:24:16 37.292065000 -121.998985000 73.3

T 2017-12-11 01:24:19 37.292030000 -121.999010000 73.5

T 2017-12-11 01:24:22 37.291996000 -121.999020000 73.6

T 2017-12-11 01:24:25 37.291954000 -121.999030000 73.8

T 2017-12-11 01:24:28 37.291916000 -121.999040000 72.8

T 2017-12-11 01:24:30 37.291890000 -121.999050000 72.9

T 2017-12-11 01:24:32 37.291862000 -121.999054000 72.0

T 2017-12-11 01:24:35 37.291824000 -121.999050000 71.6

T 2017-12-11 01:24:38 37.291790000 -121.999040000 71.6

T 2017-12-11 01:24:41 37.291750000 -121.999020000 70.8

T 2017-12-11 01:24:44 37.291718000 -121.999016000 70.0

T 2017-12-11 01:24:47 37.291687000 -121.998990000 69.9

T 2017-12-11 01:24:50 37.291656000 -121.998970000 70.0

T 2017-12-11 01:24:53 37.291630000 -121.998950000 70.5

T 2017-12-11 01:25:02 37.291595000 -121.998920000 70.6

T 2017-12-11 01:25:04 37.291573000 -121.998890000 70.7

T 2017-12-11 01:25:06 37.291553000 -121.998880000 70.4

T 2017-12-11 01:25:08 37.291527000 -121.998856000 70.9

T 2017-12-11 01:25:10 37.291504000 -121.998830000 70.8

T 2017-12-11 01:25:13 37.291473000 -121.998810000 70.4

T 2017-12-11 01:25:15 37.291447000 -121.998790000 71.1

T 2017-12-11 01:25:17 37.291424000 -121.998764000 70.8


T 2017-12-11 01:25:20 37.291390000 -121.998740000 70.7

T 2017-12-11 01:25:23 37.291360000 -121.998710000 70.2

T 2017-12-11 01:25:26 37.291330000 -121.998680000 70.7

T 2017-12-11 01:25:29 37.291294000 -121.998660000 72.5

T 2017-12-11 01:25:32 37.291267000 -121.998634000 72.9

T 2017-12-11 01:25:35 37.291237000 -121.998600000 74.3

T 2017-12-11 01:25:38 37.291206000 -121.998566000 74.6

T 2017-12-11 01:25:41 37.291176000 -121.998540000 74.4

T 2017-12-11 01:25:44 37.291140000 -121.998510000 73.5

T 2017-12-11 01:25:47 37.291115000 -121.998480000 72.5

T 2017-12-11 01:25:50 37.291084000 -121.998460000 72.7

T 2017-12-11 01:25:53 37.291054000 -121.998436000 72.1

T 2017-12-11 01:25:56 37.291023000 -121.998410000 71.8

T 2017-12-11 01:25:59 37.290993000 -121.998380000 71.8

T 2017-12-11 01:26:02 37.290970000 -121.998350000 70.7

T 2017-12-11 01:26:05 37.290943000 -121.998330000 70.8

T 2017-12-11 01:26:10 37.290920000 -121.998290000 70.6

T 2017-12-11 01:26:13 37.290897000 -121.998260000 70.1

T 2017-12-11 01:26:16 37.290880000 -121.998220000 69.8

T 2017-12-11 01:26:19 37.290860000 -121.998184000 69.4

T 2017-12-11 01:26:22 37.290840000 -121.998140000 71.1

T 2017-12-11 01:26:26 37.290820000 -121.998080000 71.1

T 2017-12-11 01:26:30 37.290802000 -121.998024000 70.9

T 2017-12-11 01:26:34 37.290790000 -121.997960000 70.6

T 2017-12-11 01:26:39 37.290787000 -121.997894000 71.9

T 2017-12-11 01:26:43 37.290790000 -121.997830000 73.2

T 2017-12-11 01:26:46 37.290800000 -121.997790000 73.7

T 2017-12-11 01:26:49 37.290810000 -121.997734000 75.4

T 2017-12-11 01:26:52 37.290820000 -121.997690000 75.3

T 2017-12-11 01:26:55 37.290836000 -121.997640000 75.9


T 2017-12-11 01:26:58 37.290855000 -121.997600000 75.8

T 2017-12-11 01:27:01 37.290880000 -121.997560000 76.1

T 2017-12-11 01:27:05 37.290910000 -121.997520000 75.8

T 2017-12-11 01:27:08 37.290940000 -121.997490000 75.1

T 2017-12-11 01:27:11 37.290970000 -121.997470000 74.6

T 2017-12-11 01:27:14 37.291000000 -121.997444000 74.6

T 2017-12-11 01:27:16 37.291027000 -121.997430000 74.0

T 2017-12-11 01:27:19 37.291065000 -121.997410000 74.1

T 2017-12-11 01:27:21 37.291092000 -121.997410000 73.6

T 2017-12-11 01:27:25 37.291138000 -121.997430000 72.9

T 2017-12-11 01:27:28 37.291176000 -121.997430000 73.2

T 2017-12-11 01:27:31 37.291220000 -121.997440000 73.0

T 2017-12-11 01:27:36 37.291283000 -121.997470000 71.9

T 2017-12-11 01:27:40 37.291325000 -121.997480000 70.6

T 2017-12-11 01:27:44 37.291367000 -121.997500000 71.3

T 2017-12-11 01:27:47 37.291390000 -121.997520000 71.5

T 2017-12-11 01:27:50 37.291416000 -121.997540000 71.8

T 2017-12-11 01:27:53 37.291447000 -121.997570000 71.9

T 2017-12-11 01:27:56 37.291477000 -121.997600000 71.7

T 2017-12-11 01:27:59 37.291504000 -121.997620000 72.3

T 2017-12-11 01:28:03 37.291540000 -121.997660000 71.2

T 2017-12-11 01:28:06 37.291570000 -121.997680000 70.9

T 2017-12-11 01:28:09 37.291603000 -121.997710000 71.1

T 2017-12-11 01:28:12 37.291637000 -121.997740000 71.1

T 2017-12-11 01:28:14 37.291660000 -121.997765000 70.8

T 2017-12-11 01:28:17 37.291690000 -121.997795000 70.9

T 2017-12-11 01:28:20 37.291725000 -121.997820000 70.1

T 2017-12-11 01:28:24 37.291763000 -121.997856000 69.3

T 2017-12-11 01:28:27 37.291794000 -121.997880000 70.1


T 2017-12-11 01:28:30 37.291824000 -121.997920000 70.6

T 2017-12-11 01:28:33 37.291850000 -121.997950000 70.7

T 2017-12-11 01:28:36 37.291878000 -121.997980000 70.3

T 2017-12-11 01:28:39 37.291912000 -121.998010000 70.1

T 2017-12-11 01:28:42 37.291935000 -121.998030000 69.9

T 2017-12-11 01:28:46 37.291970000 -121.998070000 70.1

T 2017-12-11 01:28:49 37.292007000 -121.998100000 70.3

T 2017-12-11 01:28:52 37.292038000 -121.998120000 70.4

T 2017-12-11 01:28:55 37.292070000 -121.998150000 71.1

T 2017-12-11 01:28:59 37.292103000 -121.998190000 72.2

T 2017-12-11 01:29:02 37.292126000 -121.998230000 73.2

T 2017-12-11 01:29:05 37.292150000 -121.998260000 73.6

T 2017-12-11 01:29:08 37.292175000 -121.998300000 73.9

T 2017-12-11 01:29:13 37.292190000 -121.998360000 75.4

T 2017-12-11 01:29:16 37.292194000 -121.998405000 75.8

T 2017-12-11 01:29:20 37.292183000 -121.998460000 73.7

T 2017-12-11 01:29:23 37.292175000 -121.998505000 73.8

T 2017-12-11 01:29:26 37.292187000 -121.998560000 74.3

T 2017-12-11 01:29:29 37.292200000 -121.998610000 74.3

T 2017-12-11 01:29:31 37.292202000 -121.998640000 74.2

T 2017-12-11 01:29:33 37.292202000 -121.998680000 75.0

T 2017-12-11 01:29:35 37.292200000 -121.998720000 74.8

T 2017-12-11 01:29:37 37.292190000 -121.998760000 74.3

T 2017-12-11 01:29:39 37.292183000 -121.998790000 73.9

T 2017-12-11 01:29:41 37.292170000 -121.998825000 73.9

T 2017-12-11 01:29:44 37.292156000 -121.998870000 73.9

T 2017-12-11 01:29:47 37.292133000 -121.998910000 73.9

T 2017-12-11 01:29:50 37.292107000 -121.998950000 75.2

T 2017-12-11 01:29:53 37.292080000 -121.998980000 76.4

T 2017-12-11 01:29:56 37.292040000 -121.999000000 76.8


T 2017-12-11 01:29:59 37.292007000 -121.999020000 76.8

T 2017-12-11 01:30:02 37.291970000 -121.999040000 76.9

T 2017-12-11 01:30:05 37.291930000 -121.999050000 76.5

T 2017-12-11 01:30:08 37.291893000 -121.999054000 76.4

T 2017-12-11 01:30:11 37.291855000 -121.999054000 76.1

T 2017-12-11 01:30:14 37.291820000 -121.999050000 75.3

T 2017-12-11 01:30:17 37.291786000 -121.999040000 73.9

T 2017-12-11 01:30:20 37.291750000 -121.999020000 73.8

T 2017-12-11 01:30:23 37.291718000 -121.999016000 73.3

T 2017-12-11 01:30:27 37.291668000 -121.998990000 72.9

T 2017-12-11 01:30:30 37.291637000 -121.998970000 73.4

T 2017-12-11 01:30:39 37.291615000 -121.998950000 73.5

T 2017-12-11 01:30:42 37.291584000 -121.998920000 72.1

T 2017-12-11 01:30:44 37.291560000 -121.998890000 70.7

T 2017-12-11 01:30:46 37.291540000 -121.998870000 70.0

T 2017-12-11 01:30:48 37.291515000 -121.998850000 69.5

T 2017-12-11 01:30:50 37.291492000 -121.998825000 68.5

T 2017-12-11 01:30:52 37.291466000 -121.998800000 68.9

T 2017-12-11 01:30:54 37.291443000 -121.998780000 68.7

T 2017-12-11 01:30:56 37.291420000 -121.998764000 68.2

T 2017-12-11 01:30:58 37.291397000 -121.998740000 68.3

T 2017-12-11 01:31:00 37.291374000 -121.998720000 67.8

T 2017-12-11 01:31:02 37.291355000 -121.998700000 67.8

T 2017-12-11 01:31:05 37.291320000 -121.998670000 67.7

T 2017-12-11 01:31:08 37.291290000 -121.998640000 65.8

T 2017-12-11 01:31:11 37.291256000 -121.998620000 65.3

T 2017-12-11 01:31:14 37.291225000 -121.998590000 64.8

T 2017-12-11 01:31:18 37.291183000 -121.998540000 64.4

T 2017-12-11 01:31:21 37.291153000 -121.998520000 64.3


T 2017-12-11 01:31:24 37.291126000 -121.998500000 63.3

T 2017-12-11 01:31:28 37.291090000 -121.998460000 62.9

T 2017-12-11 01:31:31 37.291060000 -121.998436000 63.3

T 2017-12-11 01:31:34 37.291030000 -121.998410000 63.1

T 2017-12-11 01:31:37 37.291000000 -121.998380000 62.9

T 2017-12-11 01:31:41 37.290966000 -121.998344000 64.3

T 2017-12-11 01:31:44 37.290940000 -121.998314000 65.4

T 2017-12-11 01:31:47 37.290913000 -121.998280000 66.4

T 2017-12-11 01:31:50 37.290890000 -121.998250000 65.6

T 2017-12-11 01:31:53 37.290870000 -121.998220000 66.4

T 2017-12-11 01:31:56 37.290860000 -121.998184000 65.9

T 2017-12-11 01:31:59 37.290844000 -121.998140000 67.6

T 2017-12-11 01:32:02 37.290830000 -121.998090000 68.2

T 2017-12-11 01:32:06 37.290806000 -121.998030000 69.3

T 2017-12-11 01:32:10 37.290802000 -121.997980000 72.6

T 2017-12-11 01:32:13 37.290800000 -121.997925000 73.5

T 2017-12-11 01:32:16 37.290794000 -121.997870000 75.1

T 2017-12-11 01:32:19 37.290800000 -121.997820000 77.4

T 2017-12-11 01:32:23 37.290810000 -121.997765000 75.5

T 2017-12-11 01:32:26 37.290825000 -121.997720000 76.4

T 2017-12-11 01:32:29 37.290844000 -121.997670000 77.1

T 2017-12-11 01:32:31 37.290850000 -121.997635000 76.8

T 2017-12-11 01:32:33 37.290863000 -121.997604000 76.7

T 2017-12-11 01:32:36 37.290880000 -121.997560000 76.4

T 2017-12-11 01:32:39 37.290900000 -121.997520000 76.7

T 2017-12-11 01:32:42 37.290930000 -121.997490000 76.0

T 2017-12-11 01:32:45 37.290960000 -121.997460000 76.1

T 2017-12-11 01:32:48 37.290990000 -121.997440000 76.1

T 2017-12-11 01:32:51 37.291023000 -121.997410000 76.4

T 2017-12-11 01:32:54 37.291060000 -121.997400000 76.1


T 2017-12-11 01:32:57 37.291100000 -121.997390000 76.6

T 2017-12-11 01:33:00 37.291138000 -121.997390000 75.8

T 2017-12-11 01:33:03 37.291180000 -121.997390000 76.1

T 2017-12-11 01:33:06 37.291218000 -121.997390000 75.9

T 2017-12-11 01:33:09 37.291256000 -121.997406000 75.5

T 2017-12-11 01:33:12 37.291290000 -121.997430000 75.2

T 2017-12-11 01:33:15 37.291325000 -121.997450000 75.2

T 2017-12-11 01:33:18 37.291355000 -121.997480000 73.8

T 2017-12-11 01:33:21 37.291393000 -121.997505000 73.6

T 2017-12-11 01:33:24 37.291424000 -121.997530000 71.7

T 2017-12-11 01:33:27 37.291454000 -121.997550000 71.4

T 2017-12-11 01:33:31 37.291492000 -121.997590000 71.0

T 2017-12-11 01:33:34 37.291527000 -121.997620000 71.5

T 2017-12-11 01:33:38 37.291560000 -121.997665000 71.5

T 2017-12-11 01:33:41 37.291590000 -121.997696000 70.9

T 2017-12-11 01:33:44 37.291626000 -121.997730000 69.3

T 2017-12-11 01:33:48 37.291668000 -121.997760000 68.8

T 2017-12-11 01:33:52 37.291706000 -121.997800000 69.0

T 2017-12-11 01:33:55 37.291733000 -121.997830000 70.3

T 2017-12-11 01:33:58 37.291763000 -121.997870000 70.7

T 2017-12-11 01:34:01 37.291790000 -121.997894000 70.9

T 2017-12-11 01:34:05 37.291836000 -121.997930000 70.8

T 2017-12-11 01:34:09 37.291874000 -121.997960000 70.7

T 2017-12-11 01:34:12 37.291904000 -121.998000000 71.4

T 2017-12-11 01:34:15 37.291930000 -121.998030000 71.6

T 2017-12-11 01:34:19 37.291960000 -121.998070000 70.8

T 2017-12-11 01:34:23 37.292000000 -121.998110000 71.3

T 2017-12-11 01:34:26 37.292030000 -121.998130000 71.1

T 2017-12-11 01:34:29 37.292065000 -121.998160000 70.9


T 2017-12-11 01:34:31 37.292090000 -121.998180000 71.1

T 2017-12-11 01:34:33 37.292110000 -121.998200000 71.9

T 2017-12-11 01:34:35 37.292133000 -121.998220000 72.2

T 2017-12-11 01:34:37 37.292156000 -121.998245000 72.7

T 2017-12-11 01:34:40 37.292183000 -121.998280000 73.6

T 2017-12-11 01:34:43 37.292206000 -121.998320000 73.1

T 2017-12-11 01:34:46 37.292217000 -121.998370000 74.1

T 2017-12-11 01:34:49 37.292210000 -121.998410000 74.8

T 2017-12-11 01:34:52 37.292202000 -121.998460000 71.7

T 2017-12-11 01:34:55 37.292190000 -121.998505000 69.7

T 2017-12-11 01:34:58 37.292183000 -121.998550000 70.3

T 2017-12-11 01:35:00 37.292187000 -121.998590000 70.2

T 2017-12-11 01:35:02 37.292194000 -121.998620000 69.9

T 2017-12-11 01:35:04 37.292200000 -121.998660000 69.4

T 2017-12-11 01:35:06 37.292200000 -121.998690000 69.0

T 2017-12-11 01:35:08 37.292194000 -121.998726000 69.5

T 2017-12-11 01:35:10 37.292190000 -121.998760000 70.4

T 2017-12-11 01:35:12 37.292183000 -121.998795000 70.7

T 2017-12-11 01:35:15 37.292170000 -121.998840000 71.0

T 2017-12-11 01:35:18 37.292152000 -121.998880000 71.4

T 2017-12-11 01:35:21 37.292130000 -121.998920000 71.9

T 2017-12-11 01:35:24 37.292103000 -121.998955000 72.4

T 2017-12-11 01:35:27 37.292072000 -121.998985000 72.7

T 2017-12-11 01:35:30 37.292038000 -121.999016000 72.4

T 2017-12-11 01:35:33 37.292000000 -121.999030000 72.7

T 2017-12-11 01:35:36 37.291960000 -121.999050000 73.0

T 2017-12-11 01:35:38 37.291935000 -121.999050000 73.0

T 2017-12-11 01:35:40 37.291910000 -121.999054000 73.4

T 2017-12-11 01:35:42 37.291878000 -121.999054000 73.5

T 2017-12-11 01:35:44 37.291850000 -121.999054000 73.4


T 2017-12-11 01:35:46 37.291820000 -121.999050000 73.0

T 2017-12-11 01:35:48 37.291794000 -121.999050000 73.5

T 2017-12-11 01:35:50 37.291767000 -121.999040000 73.3

T 2017-12-11 01:35:52 37.291740000 -121.999020000 73.5

T 2017-12-11 01:35:54 37.291714000 -121.999016000 74.0

T 2017-12-11 01:35:56 37.291687000 -121.999000000 74.1

T 2017-12-11 01:35:58 37.291664000 -121.998985000 73.9

T 2017-12-11 01:36:00 37.291640000 -121.998970000 73.9

T 2017-12-11 01:36:04 37.291615000 -121.998940000 74.0

T 2017-12-11 01:36:13 37.291584000 -121.998910000 74.4

T 2017-12-11 01:36:15 37.291560000 -121.998886000 74.7

T 2017-12-11 01:36:17 37.291540000 -121.998860000 74.9

T 2017-12-11 01:36:19 37.291510000 -121.998840000 75.0

T 2017-12-11 01:36:21 37.291490000 -121.998820000 73.7

T 2017-12-11 01:36:23 37.291466000 -121.998800000 73.1

T 2017-12-11 01:36:25 37.291443000 -121.998780000 72.6

T 2017-12-11 01:36:27 37.291420000 -121.998760000 72.1

T 2017-12-11 01:36:29 37.291397000 -121.998730000 71.2

T 2017-12-11 01:36:31 37.291374000 -121.998720000 71.4

T 2017-12-11 01:36:33 37.291355000 -121.998695000 70.8

T 2017-12-11 01:36:36 37.291325000 -121.998670000 70.4

T 2017-12-11 01:36:39 37.291294000 -121.998640000 70.6

T 2017-12-11 01:36:42 37.291264000 -121.998620000 69.6

T 2017-12-11 01:36:45 37.291237000 -121.998590000 69.4

T 2017-12-11 01:36:48 37.291206000 -121.998566000 69.0

T 2017-12-11 01:36:51 37.291176000 -121.998540000 69.3

T 2017-12-11 01:36:54 37.291150000 -121.998520000 69.0

T 2017-12-11 01:36:57 37.291120000 -121.998490000 69.4

T 2017-12-11 01:37:00 37.291092000 -121.998460000 68.5


T 2017-12-11 01:37:03 37.291065000 -121.998436000 68.6

T 2017-12-11 01:37:06 37.291040000 -121.998420000 68.0

T 2017-12-11 01:37:09 37.291010000 -121.998400000 67.3

T 2017-12-11 01:37:12 37.290990000 -121.998375000 66.5

T 2017-12-11 01:37:15 37.290970000 -121.998344000 66.4

T 2017-12-11 01:37:19 37.290940000 -121.998310000 66.7

T 2017-12-11 01:37:22 37.290913000 -121.998270000 67.5

T 2017-12-11 01:37:26 37.290890000 -121.998220000 68.0

T 2017-12-11 01:37:30 37.290867000 -121.998180000 67.3

T 2017-12-11 01:37:33 37.290848000 -121.998140000 68.2

T 2017-12-11 01:37:42 37.290825000 -121.998110000 69.9

T 2017-12-11 01:37:47 37.290820000 -121.998055000 70.9

T 2017-12-11 01:37:50 37.290825000 -121.998000000 71.2

T 2017-12-11 01:37:52 37.290825000 -121.997960000 71.6

T 2017-12-11 01:37:55 37.290825000 -121.997894000 71.9

T 2017-12-11 01:37:57 37.290825000 -121.997850000 72.6

T 2017-12-11 01:37:59 37.290830000 -121.997795000 72.4

T 2017-12-11 01:38:01 37.290833000 -121.997750000 72.8

T 2017-12-11 01:38:03 37.290836000 -121.997710000 72.5

T 2017-12-11 01:38:07 37.290855000 -121.997635000 71.9

T 2017-12-11 01:38:09 37.290867000 -121.997604000 71.7

T 2017-12-11 01:38:11 37.290882000 -121.997574000 71.8

T 2017-12-11 01:38:14 37.290910000 -121.997536000 72.4

T 2017-12-11 01:38:17 37.290940000 -121.997500000 72.5

T 2017-12-11 01:38:20 37.290974000 -121.997470000 72.6

T 2017-12-11 01:38:22 37.290997000 -121.997450000 73.0

T 2017-12-11 01:38:24 37.291023000 -121.997444000 72.7

T 2017-12-11 01:38:26 37.291050000 -121.997430000 73.1

T 2017-12-11 01:38:28 37.291077000 -121.997410000 73.2

T 2017-12-11 01:38:30 37.291107000 -121.997410000 73.0


T 2017-12-11 01:38:32 37.291134000 -121.997406000 74.5

T 2017-12-11 01:38:34 37.291164000 -121.997400000 74.5

T 2017-12-11 01:38:36 37.291190000 -121.997390000 75.1

T 2017-12-11 01:38:38 37.291220000 -121.997380000 74.7

T 2017-12-11 01:38:42 37.291267000 -121.997390000 74.5

T 2017-12-11 01:38:46 37.291306000 -121.997410000 74.7

T 2017-12-11 01:38:49 37.291332000 -121.997444000 72.1

T 2017-12-11 01:38:51 37.291350000 -121.997470000 71.8

T 2017-12-11 01:38:54 37.291386000 -121.997500000 71.8

T 2017-12-11 01:38:57 37.291412000 -121.997530000 72.3

T 2017-12-11 01:39:00 37.291443000 -121.997560000 73.4

T 2017-12-11 01:39:04 37.291480000 -121.997600000 73.5

T 2017-12-11 01:39:07 37.291510000 -121.997630000 73.1

T 2017-12-11 01:39:10 37.291542000 -121.997660000 72.9

T 2017-12-11 01:39:13 37.291580000 -121.997680000 72.7

T 2017-12-11 01:39:17 37.291620000 -121.997710000 74.2

T 2017-12-11 01:39:20 37.291645000 -121.997734000 75.8

T 2017-12-11 01:39:24 37.291680000 -121.997770000 75.3

T 2017-12-11 01:39:27 37.291710000 -121.997800000 75.0

T 2017-12-11 01:39:31 37.291748000 -121.997840000 73.9

T 2017-12-11 01:39:35 37.291790000 -121.997880000 73.7

T 2017-12-11 01:39:40 37.291840000 -121.997920000 73.2

T 2017-12-11 01:39:44 37.291885000 -121.997955000 74.9

T 2017-12-11 01:39:48 37.291924000 -121.997990000 73.8

T 2017-12-11 01:39:51 37.291954000 -121.998024000 73.3

T 2017-12-11 01:39:54 37.291985000 -121.998060000 73.3

T 2017-12-11 01:39:57 37.292020000 -121.998110000 73.4

T 2017-12-11 01:40:00 37.292057000 -121.998140000 73.0

T 2017-12-11 01:40:04 37.292103000 -121.998180000 73.7


T 2017-12-11 01:40:08 37.292140000 -121.998215000 74.2

T 2017-12-11 01:40:11 37.292170000 -121.998245000 74.3

T 2017-12-11 01:40:14 37.292194000 -121.998280000 74.7

T 2017-12-11 01:40:17 37.292220000 -121.998320000 75.3

T 2017-12-11 01:40:19 37.292236000 -121.998350000 75.2

T 2017-12-11 01:40:21 37.292244000 -121.998390000 75.4

T 2017-12-11 01:40:24 37.292250000 -121.998436000 75.2

T 2017-12-11 01:40:27 37.292250000 -121.998490000 74.3

T 2017-12-11 01:40:30 37.292230000 -121.998530000 73.5

T 2017-12-11 01:40:33 37.292225000 -121.998580000 74.7

T 2017-12-11 01:40:35 37.292230000 -121.998610000 74.7

T 2017-12-11 01:40:37 37.292230000 -121.998650000 73.2

T 2017-12-11 01:40:40 37.292233000 -121.998700000 71.8

T 2017-12-11 01:40:43 37.292225000 -121.998750000 71.3

T 2017-12-11 01:40:46 37.292217000 -121.998790000 69.9

T 2017-12-11 01:40:49 37.292202000 -121.998830000 69.6

T 2017-12-11 01:40:52 37.292183000 -121.998870000 69.7

T 2017-12-11 01:40:55 37.292156000 -121.998900000 69.9

T 2017-12-11 01:40:58 37.292130000 -121.998930000 70.0

T 2017-12-11 01:41:01 37.292103000 -121.998955000 70.1

T 2017-12-11 01:41:04 37.292072000 -121.998985000 71.0

T 2017-12-11 01:41:07 37.292038000 -121.999010000 70.5

T 2017-12-11 01:41:10 37.292004000 -121.999030000 70.5

T 2017-12-11 01:41:12 37.291977000 -121.999040000 71.2

T 2017-12-11 01:41:14 37.291946000 -121.999050000 73.2

T 2017-12-11 01:41:16 37.291916000 -121.999050000 73.3

T 2017-12-11 01:41:18 37.291890000 -121.999054000 72.7

T 2017-12-11 01:41:21 37.291850000 -121.999050000 72.6

T 2017-12-11 01:41:24 37.291813000 -121.999050000 72.0

T 2017-12-11 01:41:27 37.291775000 -121.999040000 71.1


T 2017-12-11 01:41:30 37.291737000 -121.999020000 70.6

T 2017-12-11 01:41:33 37.291700000 -121.999010000 70.2

T 2017-12-11 01:41:36 37.291664000 -121.998985000 71.0

T 2017-12-11 01:41:39 37.291634000 -121.998960000 71.8

T 2017-12-11 01:41:49 37.291600000 -121.998930000 72.2

T 2017-12-11 01:41:52 37.291573000 -121.998900000 72.3

T 2017-12-11 01:41:54 37.291546000 -121.998880000 72.6

T 2017-12-11 01:41:56 37.291523000 -121.998856000 72.4

T 2017-12-11 01:41:58 37.291496000 -121.998830000 71.6

T 2017-12-11 01:42:00 37.291473000 -121.998810000 71.0

T 2017-12-11 01:42:02 37.291450000 -121.998795000 70.7

T 2017-12-11 01:42:05 37.291420000 -121.998764000 69.7

T 2017-12-11 01:42:08 37.291390000 -121.998730000 69.8

T 2017-12-11 01:42:11 37.291360000 -121.998700000 69.5

T 2017-12-11 01:42:14 37.291330000 -121.998680000 69.7

T 2017-12-11 01:42:17 37.291300000 -121.998650000 69.0

T 2017-12-11 01:42:20 37.291267000 -121.998630000 68.6

T 2017-12-11 01:42:23 37.291240000 -121.998604000 68.5

T 2017-12-11 01:42:26 37.291214000 -121.998566000 68.0

T 2017-12-11 01:42:29 37.291183000 -121.998535000 69.6

T 2017-12-11 01:42:32 37.291157000 -121.998505000 68.5

T 2017-12-11 01:42:35 37.291130000 -121.998474000 68.7

T 2017-12-11 01:42:38 37.291100000 -121.998450000 68.2

T 2017-12-11 01:42:41 37.291065000 -121.998420000 68.2

T 2017-12-11 01:42:44 37.291040000 -121.998390000 67.4

T 2017-12-11 01:42:48 37.291000000 -121.998360000 66.8

T 2017-12-11 01:42:51 37.290974000 -121.998330000 67.7

T 2017-12-11 01:42:55 37.290943000 -121.998280000 70.8

T 2017-12-11 01:42:58 37.290936000 -121.998245000 71.1


T 2017-12-11 01:43:02 37.290913000 -121.998215000 71.6

T 2017-12-11 01:43:06 37.290882000 -121.998170000 70.2

T 2017-12-11 01:43:09 37.290850000 -121.998130000 69.5

T 2017-12-11 01:43:12 37.290833000 -121.998090000 69.6

T 2017-12-11 01:43:15 37.290820000 -121.998050000 68.4

T 2017-12-11 01:43:18 37.290802000 -121.998000000 69.7

T 2017-12-11 01:43:21 37.290794000 -121.997955000 73.3

T 2017-12-11 01:43:23 37.290794000 -121.997920000 73.3

T 2017-12-11 01:43:26 37.290790000 -121.997870000 72.9

T 2017-12-11 01:43:29 37.290787000 -121.997826000 73.4

T 2017-12-11 01:43:32 37.290794000 -121.997780000 73.4

T 2017-12-11 01:43:35 37.290802000 -121.997730000 73.4

T 2017-12-11 01:43:37 37.290810000 -121.997696000 75.3

T 2017-12-11 01:43:40 37.290820000 -121.997640000 76.5

T 2017-12-11 01:43:43 37.290840000 -121.997600000 76.8

T 2017-12-11 01:43:46 37.290863000 -121.997550000 76.5

T 2017-12-11 01:43:49 37.290890000 -121.997505000 77.1

T 2017-12-11 01:43:52 37.290920000 -121.997470000 77.0

T 2017-12-11 01:43:54 37.290940000 -121.997450000 77.2

T 2017-12-11 01:43:57 37.290977000 -121.997430000 77.0

T 2017-12-11 01:44:00 37.291016000 -121.997406000 76.7

T 2017-12-11 01:44:03 37.291050000 -121.997390000 76.4

T 2017-12-11 01:44:06 37.291084000 -121.997380000 75.1

T 2017-12-11 01:44:10 37.291134000 -121.997375000 75.1

T 2017-12-11 01:44:13 37.291170000 -121.997375000 74.7

T 2017-12-11 01:44:17 37.291214000 -121.997390000 74.6

T 2017-12-11 01:44:21 37.291264000 -121.997410000 75.1

T 2017-12-11 01:44:24 37.291298000 -121.997430000 76.0

T 2017-12-11 01:44:27 37.291332000 -121.997444000 75.0

T 2017-12-11 01:44:30 37.291355000 -121.997480000 74.3


T 2017-12-11 01:44:33 37.291386000 -121.997510000 74.0

T 2017-12-11 01:44:36 37.291412000 -121.997540000 74.3

T 2017-12-11 01:44:39 37.291443000 -121.997580000 74.7

T 2017-12-11 01:44:43 37.291485000 -121.997610000 75.2

T 2017-12-11 01:44:47 37.291523000 -121.997650000 73.6

T 2017-12-11 01:44:50 37.291553000 -121.997690000 73.5

T 2017-12-11 01:44:53 37.291588000 -121.997720000 73.9

T 2017-12-11 01:44:56 37.291622000 -121.997750000 73.2

T 2017-12-11 01:45:00 37.291660000 -121.997790000 72.5

T 2017-12-11 01:45:04 37.291702000 -121.997820000 71.2

T 2017-12-11 01:45:08 37.291744000 -121.997856000 71.1

T 2017-12-11 01:45:11 37.291782000 -121.997890000 71.2

T 2017-12-11 01:45:14 37.291813000 -121.997910000 68.6

T 2017-12-11 01:45:17 37.291850000 -121.997950000 68.6

T 2017-12-11 01:45:20 37.291885000 -121.997980000 68.4

T 2017-12-11 01:45:23 37.291912000 -121.998010000 69.1

T 2017-12-11 01:45:26 37.291940000 -121.998040000 68.0

T 2017-12-11 01:45:30 37.291970000 -121.998070000 67.5

T 2017-12-11 01:45:34 37.292007000 -121.998100000 69.0

T 2017-12-11 01:45:37 37.292038000 -121.998130000 68.5

T 2017-12-11 01:45:40 37.292072000 -121.998150000 69.2

T 2017-12-11 01:45:43 37.292103000 -121.998184000 69.6

T 2017-12-11 01:45:46 37.292130000 -121.998215000 70.7

T 2017-12-11 01:45:49 37.292156000 -121.998245000 71.9

T 2017-12-11 01:45:53 37.292190000 -121.998290000 72.7

T 2017-12-11 01:45:56 37.292213000 -121.998340000 72.3

T 2017-12-11 01:45:58 37.292225000 -121.998370000 72.9

T 2017-12-11 01:46:00 37.292233000 -121.998405000 72.0

T 2017-12-11 01:46:03 37.292236000 -121.998460000 72.1


T 2017-12-11 01:46:06 37.292233000 -121.998505000 73.3

T 2017-12-11 01:46:09 37.292206000 -121.998540000 74.8

T 2017-12-11 01:46:12 37.292210000 -121.998600000 73.8

T 2017-12-11 01:46:14 37.292213000 -121.998630000 73.6

T 2017-12-11 01:46:16 37.292213000 -121.998665000 73.6

T 2017-12-11 01:46:18 37.292210000 -121.998700000 73.1

T 2017-12-11 01:46:20 37.292202000 -121.998740000 73.7

T 2017-12-11 01:46:23 37.292190000 -121.998790000 73.8

T 2017-12-11 01:46:26 37.292170000 -121.998830000 74.0

T 2017-12-11 01:46:29 37.292150000 -121.998870000 74.9

T 2017-12-11 01:46:32 37.292126000 -121.998910000 73.8

T 2017-12-11 01:46:35 37.292100000 -121.998940000 74.5

T 2017-12-11 01:46:37 37.292076000 -121.998960000 75.2

T 2017-12-11 01:46:39 37.292053000 -121.998980000 75.2

T 2017-12-11 01:46:42 37.292020000 -121.999010000 75.1

T 2017-12-11 01:46:45 37.291980000 -121.999020000 75.4

T 2017-12-11 01:46:48 37.291940000 -121.999040000 75.5

T 2017-12-11 01:46:50 37.291912000 -121.999050000 75.4

T 2017-12-11 01:46:52 37.291880000 -121.999050000 75.9

T 2017-12-11 01:46:54 37.291855000 -121.999054000 75.6

T 2017-12-11 01:46:56 37.291830000 -121.999050000 75.1

T 2017-12-11 01:46:58 37.291800000 -121.999050000 74.2

T 2017-12-11 01:47:01 37.291760000 -121.999040000 74.2

T 2017-12-11 01:47:03 37.291733000 -121.999020000 73.4

T 2017-12-11 01:47:05 37.291706000 -121.999016000 74.2

T 2017-12-11 01:47:07 37.291683000 -121.999000000 74.0

T 2017-12-11 01:47:10 37.291650000 -121.998985000 74.2

T 2017-12-11 01:47:13 37.291620000 -121.998955000 74.2

T 2017-12-11 01:47:17 37.291600000 -121.998930000 73.9

T 2017-12-11 01:47:27 37.291565000 -121.998920000 74.3


T 2017-12-11 01:47:30 37.291534000 -121.998886000 73.8

T 2017-12-11 01:47:32 37.291510000 -121.998860000 73.3

T 2017-12-11 01:47:34 37.291490000 -121.998850000 72.3

T 2017-12-11 01:47:36 37.291466000 -121.998825000 71.6

T 2017-12-11 01:47:38 37.291447000 -121.998800000 71.4

T 2017-12-11 01:47:40 37.291428000 -121.998780000 70.8

T 2017-12-11 01:47:42 37.291405000 -121.998760000 70.3

T 2017-12-11 01:47:44 37.291380000 -121.998730000 69.5

T 2017-12-11 01:47:46 37.291360000 -121.998720000 69.3

T 2017-12-11 01:47:49 37.291330000 -121.998690000 68.8

T 2017-12-11 01:47:52 37.291300000 -121.998660000 69.1

T 2017-12-11 01:47:55 37.291270000 -121.998630000 68.8

T 2017-12-11 01:47:58 37.291245000 -121.998600000 68.7

T 2017-12-11 01:48:01 37.291214000 -121.998570000 68.6

T 2017-12-11 01:48:04 37.291183000 -121.998540000 68.2

T 2017-12-11 01:48:07 37.291157000 -121.998510000 67.6

T 2017-12-11 01:48:10 37.291126000 -121.998490000 67.0

T 2017-12-11 01:48:13 37.291100000 -121.998460000 66.5

T 2017-12-11 01:48:16 37.291073000 -121.998430000 66.6

T 2017-12-11 01:48:19 37.291046000 -121.998405000 68.4

T 2017-12-11 01:48:22 37.291020000 -121.998375000 68.9

T 2017-12-11 01:48:25 37.290993000 -121.998344000 68.7

T 2017-12-11 01:48:28 37.290970000 -121.998314000 69.1

T 2017-12-11 01:48:31 37.290947000 -121.998290000 68.4

T 2017-12-11 01:48:35 37.290916000 -121.998250000 71.1

T 2017-12-11 01:48:38 37.290894000 -121.998220000 72.8

T 2017-12-11 01:48:41 37.290874000 -121.998184000 75.1

T 2017-12-11 01:48:45 37.290850000 -121.998130000 74.1

T 2017-12-11 01:48:48 37.290836000 -121.998080000 73.0


T 2017-12-11 01:48:51 37.290810000 -121.998040000 71.2

T 2017-12-11 01:48:53 37.290800000 -121.998010000 72.5

T 2017-12-11 01:49:01 37.290787000 -121.997955000 73.5

T 2017-12-11 01:49:04 37.290783000 -121.997894000 77.1

T 2017-12-11 01:49:07 37.290787000 -121.997830000 77.6

T 2017-12-11 01:49:09 37.290794000 -121.997790000 77.6

T 2017-12-11 01:49:11 37.290802000 -121.997750000 77.8

T 2017-12-11 01:49:13 37.290813000 -121.997710000 78.1

T 2017-12-11 01:49:16 37.290830000 -121.997660000 77.8

T 2017-12-11 01:49:18 37.290840000 -121.997630000 77.7

T 2017-12-11 01:49:21 37.290863000 -121.997580000 76.8

T 2017-12-11 01:49:24 37.290886000 -121.997540000 76.7

T 2017-12-11 01:49:27 37.290916000 -121.997510000 75.7

T 2017-12-11 01:49:30 37.290950000 -121.997480000 75.7

T 2017-12-11 01:49:33 37.290985000 -121.997450000 75.7

T 2017-12-11 01:49:36 37.291016000 -121.997430000 75.6

T 2017-12-11 01:49:39 37.291054000 -121.997420000 76.2

T 2017-12-11 01:49:42 37.291092000 -121.997406000 76.6

T 2017-12-11 01:49:44 37.291120000 -121.997390000 77.1

T 2017-12-11 01:49:46 37.291145000 -121.997380000 76.9

T 2017-12-11 01:49:49 37.291183000 -121.997380000 76.9

T 2017-12-11 01:49:52 37.291225000 -121.997380000 77.5

T 2017-12-11 01:49:55 37.291267000 -121.997406000 78.3

T 2017-12-11 01:49:57 37.291290000 -121.997420000 77.0

T 2017-12-11 01:50:00 37.291330000 -121.997444000 78.4

T 2017-12-11 01:50:03 37.291360000 -121.997475000 75.6

T 2017-12-11 01:50:06 37.291393000 -121.997505000 73.0

T 2017-12-11 01:50:08 37.291412000 -121.997530000 72.9

T 2017-12-11 01:50:11 37.291440000 -121.997570000 72.4

T 2017-12-11 01:50:15 37.291477000 -121.997620000 71.1


T 2017-12-11 01:50:18 37.291515000 -121.997650000 71.1

T 2017-12-11 01:50:21 37.291553000 -121.997670000 71.5

T 2017-12-11 01:50:24 37.291584000 -121.997700000 71.0

T 2017-12-11 01:50:27 37.291607000 -121.997734000 70.1

T 2017-12-11 01:50:30 37.291640000 -121.997765000 69.5

T 2017-12-11 01:50:33 37.291670000 -121.997795000 69.4

T 2017-12-11 01:50:36 37.291702000 -121.997830000 69.6

T 2017-12-11 01:50:40 37.291740000 -121.997870000 70.1

T 2017-12-11 01:50:44 37.291780000 -121.997910000 70.3

T 2017-12-11 01:50:48 37.291817000 -121.997940000 69.0

T 2017-12-11 01:50:51 37.291855000 -121.997960000 68.0

T 2017-12-11 01:50:55 37.291900000 -121.998000000 67.5

T 2017-12-11 01:50:58 37.291930000 -121.998030000 68.0

T 2017-12-11 01:51:01 37.291960000 -121.998060000 67.6

T 2017-12-11 01:51:04 37.291985000 -121.998085000 66.8

T 2017-12-11 01:51:07 37.292010000 -121.998120000 67.7

T 2017-12-11 01:51:10 37.292034000 -121.998150000 68.7

T 2017-12-11 01:51:13 37.292065000 -121.998184000 68.7

T 2017-12-11 01:51:16 37.292090000 -121.998210000 69.6

T 2017-12-11 01:51:19 37.292120000 -121.998240000 70.5

T 2017-12-11 01:51:22 37.292145000 -121.998276000 71.8

T 2017-12-11 01:51:25 37.292168000 -121.998314000 71.5

T 2017-12-11 01:51:28 37.292183000 -121.998360000 72.4

T 2017-12-11 01:51:31 37.292200000 -121.998400000 72.8

T 2017-12-11 01:51:33 37.292202000 -121.998436000 72.6

T 2017-12-11 01:51:35 37.292206000 -121.998470000 73.0

T 2017-12-11 01:51:38 37.292194000 -121.998510000 73.5

T 2017-12-11 01:51:41 37.292190000 -121.998560000 73.0

T 2017-12-11 01:51:43 37.292200000 -121.998590000 72.3


T 2017-12-11 01:51:45 37.292202000 -121.998630000 72.5

T 2017-12-11 01:51:48 37.292200000 -121.998680000 72.6

T 2017-12-11 01:51:50 37.292194000 -121.998720000 71.9

T 2017-12-11 01:51:52 37.292187000 -121.998760000 71.5

T 2017-12-11 01:51:54 37.292175000 -121.998790000 70.6

T 2017-12-11 01:51:57 37.292156000 -121.998830000 70.6

T 2017-12-11 01:52:00 37.292137000 -121.998870000 71.1

T 2017-12-11 01:52:03 37.292118000 -121.998910000 70.2

T 2017-12-11 01:52:06 37.292100000 -121.998950000 69.0

T 2017-12-11 01:52:09 37.292065000 -121.998980000 68.5

T 2017-12-11 01:52:12 37.292030000 -121.999000000 68.7

T 2017-12-11 01:52:15 37.291996000 -121.999020000 68.9

T 2017-12-11 01:52:18 37.291960000 -121.999050000 69.4

T 2017-12-11 01:52:20 37.291930000 -121.999054000 71.5

T 2017-12-11 01:52:22 37.291904000 -121.999054000 71.0

T 2017-12-11 01:52:24 37.291878000 -121.999060000 71.8

T 2017-12-11 01:52:26 37.291847000 -121.999060000 72.3

T 2017-12-11 01:52:29 37.291800000 -121.999060000 71.6

T 2017-12-11 01:52:31 37.291775000 -121.999054000 71.1

T 2017-12-11 01:52:34 37.291737000 -121.999050000 71.3

T 2017-12-11 01:52:37 37.291700000 -121.999030000 70.5

T 2017-12-11 01:52:39 37.291676000 -121.999016000 70.5

T 2017-12-11 01:52:41 37.291650000 -121.999000000 70.1

T 2017-12-11 01:52:44 37.291620000 -121.998980000 69.5

T 2017-12-11 01:52:49 37.291590000 -121.998955000 70.4

T 2017-12-11 01:52:57 37.291570000 -121.998930000 72.5

T 2017-12-11 01:52:59 37.291550000 -121.998910000 71.8

T 2017-12-11 01:53:02 37.291515000 -121.998886000 70.8

T 2017-12-11 01:53:05 37.291490000 -121.998850000 71.6

T 2017-12-11 01:53:07 37.291470000 -121.998825000 72.2


T 2017-12-11 01:53:10 37.291440000 -121.998790000 73.8

T 2017-12-11 01:53:13 37.291410000 -121.998760000 74.6

T 2017-12-11 01:53:16 37.291380000 -121.998726000 74.6

T 2017-12-11 01:53:18 37.291363000 -121.998700000 75.1

T 2017-12-11 01:53:20 37.291340000 -121.998680000 75.0

T 2017-12-11 01:53:22 37.291317000 -121.998665000 75.4

T 2017-12-11 01:53:25 37.291286000 -121.998634000 74.9

T 2017-12-11 01:53:28 37.291256000 -121.998604000 74.4

T 2017-12-11 01:53:31 37.291220000 -121.998580000 74.8

T 2017-12-11 01:53:34 37.291190000 -121.998560000 74.6

T 2017-12-11 01:53:37 37.291164000 -121.998530000 74.3

T 2017-12-11 01:53:40 37.291138000 -121.998500000 74.0

T 2017-12-11 01:53:43 37.291110000 -121.998470000 74.4

T 2017-12-11 01:53:46 37.291090000 -121.998440000 76.2

T 2017-12-11 01:53:49 37.291060000 -121.998410000 75.3

T 2017-12-11 01:53:52 37.291030000 -121.998390000 75.2

T 2017-12-11 01:53:55 37.291004000 -121.998360000 72.8

T 2017-12-11 01:53:58 37.290974000 -121.998330000 72.3

T 2017-12-11 01:54:01 37.290943000 -121.998300000 73.6

T 2017-12-11 01:54:04 37.290924000 -121.998270000 74.9

T 2017-12-11 01:54:08 37.290900000 -121.998230000 75.2

T 2017-12-11 01:54:12 37.290874000 -121.998184000 73.2

T 2017-12-11 01:54:16 37.290860000 -121.998120000 71.1

T 2017-12-11 01:54:20 37.290840000 -121.998060000 72.4

T 2017-12-11 01:54:25 37.290813000 -121.997980000 73.8

T 2017-12-11 01:54:28 37.290806000 -121.997920000 75.7

T 2017-12-11 01:54:32 37.290802000 -121.997850000 74.5

T 2017-12-11 01:54:37 37.290783000 -121.997780000 74.7

T 2017-12-11 01:54:40 37.290790000 -121.997734000 75.4


T 2017-12-11 01:54:43 37.290802000 -121.997690000 74.7

T 2017-12-11 01:54:46 37.290820000 -121.997640000 72.4

T 2017-12-11 01:54:49 37.290844000 -121.997604000 69.7

T 2017-12-11 01:54:52 37.290867000 -121.997574000 69.5

T 2017-12-11 01:54:55 37.290894000 -121.997540000 69.8

T 2017-12-11 01:54:58 37.290920000 -121.997505000 70.1

T 2017-12-11 01:55:01 37.290955000 -121.997480000 69.8

T 2017-12-11 01:55:03 37.290977000 -121.997470000 70.2

T 2017-12-11 01:55:05 37.291004000 -121.997450000 69.5

T 2017-12-11 01:55:07 37.291027000 -121.997440000 69.6

T 2017-12-11 01:55:09 37.291054000 -121.997420000 69.2

T 2017-12-11 01:55:12 37.291092000 -121.997410000 69.7

T 2017-12-11 01:55:15 37.291130000 -121.997410000 69.6

T 2017-12-11 01:55:18 37.291170000 -121.997410000 70.5

T 2017-12-11 01:55:21 37.291203000 -121.997410000 71.0

T 2017-12-11 01:55:24 37.291245000 -121.997420000 70.4

T 2017-12-11 01:55:27 37.291283000 -121.997430000 70.7

T 2017-12-11 01:55:30 37.291313000 -121.997444000 71.8

T 2017-12-11 01:55:34 37.291348000 -121.997475000 71.4

T 2017-12-11 01:55:38 37.291380000 -121.997505000 71.8

T 2017-12-11 01:55:42 37.291420000 -121.997536000 71.6

T 2017-12-11 01:55:46 37.291460000 -121.997574000 69.7

T 2017-12-11 01:55:50 37.291496000 -121.997604000 69.9

T 2017-12-11 01:55:54 37.291530000 -121.997635000 67.8

T 2017-12-11 01:55:58 37.291565000 -121.997665000 66.4

T 2017-12-11 01:56:01 37.291600000 -121.997700000 65.5

T 2017-12-11 01:56:04 37.291630000 -121.997734000 65.2

T 2017-12-11 01:56:07 37.291664000 -121.997760000 65.5

T 2017-12-11 01:56:10 37.291700000 -121.997790000 65.5

T 2017-12-11 01:56:13 37.291730000 -121.997820000 65.0


T 2017-12-11 01:56:17 37.291763000 -121.997850000 66.5

T 2017-12-11 01:56:20 37.291794000 -121.997880000 69.2

T 2017-12-11 01:56:23 37.291817000 -121.997910000 69.1

T 2017-12-11 01:56:26 37.291843000 -121.997940000 69.4

T 2017-12-11 01:56:29 37.291870000 -121.997980000 67.6

T 2017-12-11 01:56:31 37.291893000 -121.998000000 68.1

T 2017-12-11 01:56:34 37.291927000 -121.998030000 67.7

T 2017-12-11 01:56:37 37.291954000 -121.998070000 67.0

T 2017-12-11 01:56:39 37.291977000 -121.998085000 67.2

T 2017-12-11 01:56:41 37.292000000 -121.998110000 66.1

T 2017-12-11 01:56:44 37.292034000 -121.998146000 66.2

T 2017-12-11 01:56:46 37.292057000 -121.998170000 66.2

T 2017-12-11 01:56:49 37.292084000 -121.998200000 67.1

T 2017-12-11 01:56:52 37.292110000 -121.998240000 67.1

T 2017-12-11 01:56:56 37.292137000 -121.998280000 68.0

T 2017-12-11 01:56:59 37.292160000 -121.998320000 69.5

T 2017-12-11 01:57:03 37.292175000 -121.998375000 70.6

T 2017-12-11 01:57:06 37.292187000 -121.998420000 70.7

T 2017-12-11 01:57:10 37.292187000 -121.998480000 70.5

T 2017-12-11 01:57:14 37.292175000 -121.998535000 69.1

T 2017-12-11 01:57:17 37.292180000 -121.998580000 69.6

T 2017-12-11 01:57:19 37.292187000 -121.998620000 70.2

T 2017-12-11 01:57:21 37.292187000 -121.998660000 70.3

T 2017-12-11 01:57:23 37.292190000 -121.998690000 69.9

T 2017-12-11 01:57:26 37.292187000 -121.998730000 70.4

T 2017-12-11 01:57:29 37.292180000 -121.998790000 70.2

T 2017-12-11 01:57:32 37.292164000 -121.998830000 70.8

T 2017-12-11 01:57:35 37.292145000 -121.998880000 69.4

T 2017-12-11 01:57:38 37.292130000 -121.998920000 68.0


T 2017-12-11 01:57:41 37.292107000 -121.998955000 67.0

T 2017-12-11 01:57:44 37.292076000 -121.998985000 68.4

T 2017-12-11 01:57:47 37.292050000 -121.999010000 68.0

T 2017-12-11 01:57:50 37.292010000 -121.999030000 68.0

T 2017-12-11 01:57:53 37.291977000 -121.999054000 68.8

T 2017-12-11 01:57:55 37.291950000 -121.999060000 69.0

T 2017-12-11 01:57:58 37.291912000 -121.999070000 69.6

T 2017-12-11 01:58:01 37.291874000 -121.999070000 69.6

T 2017-12-11 01:58:05 37.291824000 -121.999070000 69.5

T 2017-12-11 01:58:08 37.291786000 -121.999060000 70.0

T 2017-12-11 01:58:10 37.291760000 -121.999054000 70.4

T 2017-12-11 01:58:12 37.291733000 -121.999050000 70.1

T 2017-12-11 01:58:15 37.291695000 -121.999030000 70.0

T 2017-12-11 01:58:18 37.291660000 -121.999010000 69.0

T 2017-12-11 01:58:21 37.291634000 -121.998980000 68.6

T 2017-12-11 01:58:24 37.291607000 -121.998955000 69.9

T 2017-12-11 01:58:33 37.291565000 -121.998930000 72.2

T 2017-12-11 01:58:36 37.291530000 -121.998890000 71.1

T 2017-12-11 01:58:38 37.291510000 -121.998870000 70.9

T 2017-12-11 01:58:40 37.291490000 -121.998850000 70.5

T 2017-12-11 01:58:42 37.291470000 -121.998825000 71.5

T 2017-12-11 01:58:45 37.291440000 -121.998795000 70.0

T 2017-12-11 01:58:48 37.291412000 -121.998764000 71.1

T 2017-12-11 01:58:51 37.291378000 -121.998740000 68.4

T 2017-12-11 01:58:54 37.291348000 -121.998720000 68.4

T 2017-12-11 01:58:57 37.291313000 -121.998695000 69.5

T 2017-12-11 01:59:00 37.291280000 -121.998670000 70.7

T 2017-12-11 01:59:03 37.291250000 -121.998640000 70.6

T 2017-12-11 01:59:06 37.291218000 -121.998610000 70.7

T 2017-12-11 01:59:09 37.291190000 -121.998580000 69.8


T 2017-12-11 01:59:12 37.291170000 -121.998540000 71.4

T 2017-12-11 01:59:15 37.291138000 -121.998510000 71.7

T 2017-12-11 01:59:18 37.291103000 -121.998490000 71.4

T 2017-12-11 01:59:21 37.291073000 -121.998470000 72.3

T 2017-12-11 01:59:24 37.291050000 -121.998436000 72.5

T 2017-12-11 01:59:27 37.291023000 -121.998400000 72.4

T 2017-12-11 01:59:30 37.291000000 -121.998360000 73.2

T 2017-12-11 01:59:33 37.290974000 -121.998330000 73.4

T 2017-12-11 01:59:36 37.290947000 -121.998290000 74.5

T 2017-12-11 01:59:39 37.290920000 -121.998260000 75.9

T 2017-12-11 01:59:42 37.290897000 -121.998230000 77.1

T 2017-12-11 01:59:45 37.290880000 -121.998184000 78.6

T 2017-12-11 01:59:49 37.290867000 -121.998130000 81.9

T 2017-12-11 01:59:52 37.290855000 -121.998085000 81.7

T 2017-12-11 01:59:56 37.290830000 -121.998024000 81.9

T 2017-12-11 02:00:00 37.290810000 -121.997955000 78.8

T 2017-12-11 02:00:05 37.290794000 -121.997870000 78.1

T 2017-12-11 02:00:10 37.290780000 -121.997790000 75.7

T 2017-12-11 02:00:13 37.290783000 -121.997740000 75.0

T 2017-12-11 02:00:16 37.290800000 -121.997690000 76.5

T 2017-12-11 02:00:19 37.290820000 -121.997640000 77.0

T 2017-12-11 02:00:22 37.290848000 -121.997604000 76.1

T 2017-12-11 02:00:26 37.290880000 -121.997560000 75.2

T 2017-12-11 02:00:29 37.290910000 -121.997530000 74.4

T 2017-12-11 02:00:32 37.290936000 -121.997500000 73.9

T 2017-12-11 02:00:35 37.290966000 -121.997470000 74.6

T 2017-12-11 02:00:38 37.291000000 -121.997444000 74.8

T 2017-12-11 02:00:41 37.291035000 -121.997420000 75.1

T 2017-12-11 02:00:44 37.291073000 -121.997406000 74.5


T 2017-12-11 02:00:47 37.291110000 -121.997400000 73.8

T 2017-12-11 02:00:50 37.291150000 -121.997390000 73.8

T 2017-12-11 02:00:53 37.291187000 -121.997400000 73.3

T 2017-12-11 02:00:56 37.291225000 -121.997400000 74.1

T 2017-12-11 02:00:59 37.291260000 -121.997406000 74.7

T 2017-12-11 02:01:02 37.291294000 -121.997420000 74.4

T 2017-12-11 02:01:05 37.291325000 -121.997444000 73.6

T 2017-12-11 02:01:08 37.291350000 -121.997460000 71.5

T 2017-12-11 02:01:12 37.291380000 -121.997490000 70.8

T 2017-12-11 02:01:15 37.291410000 -121.997520000 70.8

T 2017-12-11 02:01:19 37.291447000 -121.997550000 69.3

T 2017-12-11 02:01:23 37.291485000 -121.997580000 69.5

T 2017-12-11 02:01:27 37.291520000 -121.997620000 70.7

T 2017-12-11 02:01:31 37.291560000 -121.997650000 72.4

T 2017-12-11 02:01:35 37.291600000 -121.997690000 71.3

T 2017-12-11 02:01:38 37.291630000 -121.997710000 72.0

T 2017-12-11 02:01:42 37.291676000 -121.997760000 73.2

T 2017-12-11 02:01:45 37.291710000 -121.997795000 70.3

T 2017-12-11 02:01:48 37.291748000 -121.997826000 69.9

T 2017-12-11 02:01:51 37.291782000 -121.997856000 70.6

T 2017-12-11 02:01:54 37.291820000 -121.997894000 70.1

T 2017-12-11 02:01:57 37.291855000 -121.997920000 70.2

T 2017-12-11 02:02:00 37.291890000 -121.997950000 70.2

T 2017-12-11 02:02:03 37.291920000 -121.997980000 69.8

T 2017-12-11 02:02:05 37.291943000 -121.998000000 69.1

T 2017-12-11 02:02:08 37.291965000 -121.998030000 69.2

T 2017-12-11 02:02:11 37.291996000 -121.998055000 68.4

T 2017-12-11 02:02:14 37.292027000 -121.998085000 68.4

T 2017-12-11 02:02:17 37.292057000 -121.998116000 68.0

T 2017-12-11 02:02:21 37.292088000 -121.998160000 69.3


T 2017-12-11 02:02:24 37.292114000 -121.998190000 68.9

T 2017-12-11 02:02:27 37.292140000 -121.998220000 69.9

T 2017-12-11 02:02:30 37.292164000 -121.998260000 69.9

T 2017-12-11 02:02:33 37.292187000 -121.998310000 71.4

T 2017-12-11 02:02:35 37.292202000 -121.998340000 70.7

T 2017-12-11 02:02:38 37.292213000 -121.998380000 70.5

T 2017-12-11 02:02:41 37.292225000 -121.998430000 69.3

T 2017-12-11 02:02:43 37.292230000 -121.998470000 70.5

T 2017-12-11 02:02:46 37.292220000 -121.998510000 70.4

T 2017-12-11 02:02:49 37.292220000 -121.998566000 70.5

T 2017-12-11 02:02:51 37.292230000 -121.998600000 71.1

T 2017-12-11 02:02:53 37.292230000 -121.998634000 70.8

T 2017-12-11 02:02:55 37.292230000 -121.998670000 71.0

T 2017-12-11 02:02:57 37.292230000 -121.998710000 70.6

T 2017-12-11 02:02:59 37.292217000 -121.998750000 71.6

T 2017-12-11 02:03:01 37.292206000 -121.998790000 71.8

T 2017-12-11 02:03:03 37.292194000 -121.998820000 71.5

T 2017-12-11 02:03:05 37.292183000 -121.998850000 70.8

T 2017-12-11 02:03:07 37.292168000 -121.998880000 71.0

T 2017-12-11 02:03:10 37.292137000 -121.998910000 71.1

T 2017-12-11 02:03:12 37.292118000 -121.998930000 71.4

T 2017-12-11 02:03:15 37.292084000 -121.998960000 73.8

T 2017-12-11 02:03:17 37.292060000 -121.998980000 74.2

T 2017-12-11 02:03:19 37.292038000 -121.999000000 74.0

T 2017-12-11 02:03:22 37.292004000 -121.999020000 73.4

T 2017-12-11 02:03:25 37.291965000 -121.999040000 73.5

T 2017-12-11 02:03:28 37.291927000 -121.999050000 74.4

T 2017-12-11 02:03:31 37.291885000 -121.999050000 74.6

T 2017-12-11 02:03:34 37.291847000 -121.999050000 75.7


T 2017-12-11 02:03:36 37.291820000 -121.999050000 76.2

T 2017-12-11 02:03:38 37.291794000 -121.999050000 76.3

T 2017-12-11 02:03:40 37.291763000 -121.999040000 76.6

T 2017-12-11 02:03:43 37.291725000 -121.999030000 76.4

T 2017-12-11 02:03:46 37.291687000 -121.999016000 75.8

T 2017-12-11 02:03:49 37.291653000 -121.998985000 76.4

T 2017-12-11 02:03:52 37.291626000 -121.998955000 76.5

T 2017-12-11 02:04:12 37.291622000 -121.998924000 75.3